<?xml version="1.0" encoding="UTF-8" standalone="no" ?>
<gpx xmlns="http://www.topografix.com/GPX/1/1" xmlns:xsi="http://www.w3.org/2001/XMLSchema-instance" xsi:schemaLocation="http://www.topografix.com/GPX/1/1 http://www.topografix.com/GPX/1/1/gpx.xsd" version="1.1" creator="VisuGPX - https://www.visugpx.com">
  <metadata>
    <name>Villiers-sur-Marne/Noisy-le-grand</name>
    <desc><![CDATA[Villiers-sur-Marne/Noisy-le-grand: Jonction en voiture]]></desc>
  </metadata>
  <trk>
    <name><![CDATA[20180826175923-u2d5c]]></name>
    <trkseg>
      <trkpt lat="48.82433" lon="2.54589">
        <ele>79.7</ele>
        <time>2018-08-26T07:21:25Z</time>
      </trkpt>
      <trkpt lat="48.82433" lon="2.54589">
        <ele>79.7</ele>
        <time>2018-08-26T07:21:26Z</time>
      </trkpt>
      <trkpt lat="48.82434" lon="2.54589">
        <ele>79.7</ele>
        <time>2018-08-26T07:21:30Z</time>
      </trkpt>
      <trkpt lat="48.82434" lon="2.54589">
        <ele>79.7</ele>
        <time>2018-08-26T07:21:31Z</time>
      </trkpt>
      <trkpt lat="48.82434" lon="2.54589">
        <ele>79.6</ele>
        <time>2018-08-26T07:21:54Z</time>
      </trkpt>
      <trkpt lat="48.82432" lon="2.54583">
        <ele>79.7</ele>
        <time>2018-08-26T07:22:00Z</time>
      </trkpt>
      <trkpt lat="48.82431" lon="2.54577">
        <ele>79.5</ele>
        <time>2018-08-26T07:22:03Z</time>
      </trkpt>
      <trkpt lat="48.82429" lon="2.54571">
        <ele>79.2</ele>
        <time>2018-08-26T07:22:08Z</time>
      </trkpt>
      <trkpt lat="48.82419" lon="2.54544">
        <ele>77.6</ele>
        <time>2018-08-26T07:22:25Z</time>
      </trkpt>
      <trkpt lat="48.82413" lon="2.54518">
        <ele>77.6</ele>
        <time>2018-08-26T07:22:42Z</time>
      </trkpt>
      <trkpt lat="48.82403" lon="2.54493">
        <ele>78.3</ele>
        <time>2018-08-26T07:22:59Z</time>
      </trkpt>
      <trkpt lat="48.82387" lon="2.54481">
        <ele>77.6</ele>
        <time>2018-08-26T07:23:14Z</time>
      </trkpt>
      <trkpt lat="48.82386" lon="2.54482">
        <ele>77.7</ele>
        <time>2018-08-26T07:23:16Z</time>
      </trkpt>
      <trkpt lat="48.82377" lon="2.54489">
        <ele>78</ele>
        <time>2018-08-26T07:23:26Z</time>
      </trkpt>
      <trkpt lat="48.82367" lon="2.54506">
        <ele>77.1</ele>
        <time>2018-08-26T07:23:40Z</time>
      </trkpt>
      <trkpt lat="48.82369" lon="2.54511">
        <ele>77.3</ele>
        <time>2018-08-26T07:23:43Z</time>
      </trkpt>
      <trkpt lat="48.82371" lon="2.54543">
        <ele>77.4</ele>
        <time>2018-08-26T07:23:58Z</time>
      </trkpt>
      <trkpt lat="48.82373" lon="2.54552">
        <ele>77.4</ele>
        <time>2018-08-26T07:24:03Z</time>
      </trkpt>
      <trkpt lat="48.82374" lon="2.54555">
        <ele>77.4</ele>
        <time>2018-08-26T07:24:05Z</time>
      </trkpt>
      <trkpt lat="48.8238" lon="2.54581">
        <ele>76.2</ele>
        <time>2018-08-26T07:24:22Z</time>
      </trkpt>
      <trkpt lat="48.8239" lon="2.5461">
        <ele>76.2</ele>
        <time>2018-08-26T07:24:41Z</time>
      </trkpt>
      <trkpt lat="48.82399" lon="2.54637">
        <ele>76.9</ele>
        <time>2018-08-26T07:24:59Z</time>
      </trkpt>
      <trkpt lat="48.82406" lon="2.54661">
        <ele>77</ele>
        <time>2018-08-26T07:25:14Z</time>
      </trkpt>
      <trkpt lat="48.82419" lon="2.54683">
        <ele>77.4</ele>
        <time>2018-08-26T07:25:31Z</time>
      </trkpt>
      <trkpt lat="48.82423" lon="2.54698">
        <ele>77.7</ele>
        <time>2018-08-26T07:25:41Z</time>
      </trkpt>
      <trkpt lat="48.82429" lon="2.54725">
        <ele>78.4</ele>
        <time>2018-08-26T07:25:58Z</time>
      </trkpt>
      <trkpt lat="48.82437" lon="2.54756">
        <ele>79.4</ele>
        <time>2018-08-26T07:26:16Z</time>
      </trkpt>
      <trkpt lat="48.82444" lon="2.54779">
        <ele>80</ele>
        <time>2018-08-26T07:26:31Z</time>
      </trkpt>
      <trkpt lat="48.8245" lon="2.54805">
        <ele>80.4</ele>
        <time>2018-08-26T07:26:46Z</time>
      </trkpt>
      <trkpt lat="48.82457" lon="2.54829">
        <ele>80.9</ele>
        <time>2018-08-26T07:27:02Z</time>
      </trkpt>
      <trkpt lat="48.82463" lon="2.54854">
        <ele>81.6</ele>
        <time>2018-08-26T07:27:17Z</time>
      </trkpt>
      <trkpt lat="48.82465" lon="2.54869">
        <ele>81.6</ele>
        <time>2018-08-26T07:27:25Z</time>
      </trkpt>
      <trkpt lat="48.82461" lon="2.5488">
        <ele>81.3</ele>
        <time>2018-08-26T07:27:38Z</time>
      </trkpt>
      <trkpt lat="48.8246" lon="2.5488">
        <ele>81.3</ele>
        <time>2018-08-26T07:27:39Z</time>
      </trkpt>
      <trkpt lat="48.82445" lon="2.54883">
        <ele>80.2</ele>
        <time>2018-08-26T07:27:51Z</time>
      </trkpt>
      <trkpt lat="48.82433" lon="2.54887">
        <ele>79.6</ele>
        <time>2018-08-26T07:28:00Z</time>
      </trkpt>
      <trkpt lat="48.82412" lon="2.54893">
        <ele>78.7</ele>
        <time>2018-08-26T07:28:19Z</time>
      </trkpt>
      <trkpt lat="48.82401" lon="2.54894">
        <ele>77.9</ele>
        <time>2018-08-26T07:28:28Z</time>
      </trkpt>
      <trkpt lat="48.82384" lon="2.549">
        <ele>77.4</ele>
        <time>2018-08-26T07:28:43Z</time>
      </trkpt>
      <trkpt lat="48.82378" lon="2.54908">
        <ele>77.7</ele>
        <time>2018-08-26T07:28:58Z</time>
      </trkpt>
      <trkpt lat="48.82373" lon="2.54907">
        <ele>77.7</ele>
        <time>2018-08-26T07:29:05Z</time>
      </trkpt>
      <trkpt lat="48.82368" lon="2.54909">
        <ele>77.7</ele>
        <time>2018-08-26T07:29:10Z</time>
      </trkpt>
      <trkpt lat="48.82349" lon="2.54916">
        <ele>78</ele>
        <time>2018-08-26T07:29:27Z</time>
      </trkpt>
      <trkpt lat="48.82332" lon="2.54919">
        <ele>78</ele>
        <time>2018-08-26T07:29:42Z</time>
      </trkpt>
      <trkpt lat="48.82315" lon="2.54926">
        <ele>78</ele>
        <time>2018-08-26T07:29:57Z</time>
      </trkpt>
      <trkpt lat="48.82314" lon="2.54929">
        <ele>78</ele>
        <time>2018-08-26T07:29:59Z</time>
      </trkpt>
      <trkpt lat="48.82313" lon="2.54941">
        <ele>78</ele>
        <time>2018-08-26T07:30:09Z</time>
      </trkpt>
      <trkpt lat="48.82304" lon="2.54963">
        <ele>78</ele>
        <time>2018-08-26T07:30:24Z</time>
      </trkpt>
      <trkpt lat="48.82292" lon="2.54973">
        <ele>78</ele>
        <time>2018-08-26T07:30:38Z</time>
      </trkpt>
      <trkpt lat="48.82291" lon="2.54978">
        <ele>78</ele>
        <time>2018-08-26T07:30:42Z</time>
      </trkpt>
      <trkpt lat="48.82287" lon="2.55011">
        <ele>78.1</ele>
        <time>2018-08-26T07:31:01Z</time>
      </trkpt>
      <trkpt lat="48.82286" lon="2.55041">
        <ele>78.6</ele>
        <time>2018-08-26T07:31:17Z</time>
      </trkpt>
      <trkpt lat="48.82284" lon="2.55069">
        <ele>79</ele>
        <time>2018-08-26T07:31:33Z</time>
      </trkpt>
      <trkpt lat="48.82283" lon="2.55073">
        <ele>79</ele>
        <time>2018-08-26T07:31:36Z</time>
      </trkpt>
      <trkpt lat="48.82279" lon="2.55101">
        <ele>79.6</ele>
        <time>2018-08-26T07:31:52Z</time>
      </trkpt>
      <trkpt lat="48.82278" lon="2.5511">
        <ele>80</ele>
        <time>2018-08-26T07:31:58Z</time>
      </trkpt>
      <trkpt lat="48.82273" lon="2.55131">
        <ele>80.2</ele>
        <time>2018-08-26T07:32:10Z</time>
      </trkpt>
      <trkpt lat="48.82265" lon="2.55163">
        <ele>80.9</ele>
        <time>2018-08-26T07:32:28Z</time>
      </trkpt>
      <trkpt lat="48.82255" lon="2.55198">
        <ele>81.1</ele>
        <time>2018-08-26T07:32:49Z</time>
      </trkpt>
      <trkpt lat="48.82247" lon="2.55223">
        <ele>82.1</ele>
        <time>2018-08-26T07:33:06Z</time>
      </trkpt>
      <trkpt lat="48.82244" lon="2.55256">
        <ele>82.2</ele>
        <time>2018-08-26T07:33:24Z</time>
      </trkpt>
      <trkpt lat="48.82243" lon="2.55268">
        <ele>82.2</ele>
        <time>2018-08-26T07:33:30Z</time>
      </trkpt>
      <trkpt lat="48.82245" lon="2.55304">
        <ele>82.2</ele>
        <time>2018-08-26T07:33:49Z</time>
      </trkpt>
      <trkpt lat="48.82246" lon="2.55315">
        <ele>82.2</ele>
        <time>2018-08-26T07:33:55Z</time>
      </trkpt>
      <trkpt lat="48.82248" lon="2.55324">
        <ele>82.1</ele>
        <time>2018-08-26T07:34:01Z</time>
      </trkpt>
      <trkpt lat="48.82253" lon="2.55329">
        <ele>82</ele>
        <time>2018-08-26T07:34:13Z</time>
      </trkpt>
      <trkpt lat="48.82253" lon="2.55329">
        <ele>82</ele>
        <time>2018-08-26T07:34:15Z</time>
      </trkpt>
      <trkpt lat="48.82266" lon="2.55333">
        <ele>82</ele>
        <time>2018-08-26T07:34:30Z</time>
      </trkpt>
      <trkpt lat="48.8227" lon="2.55335">
        <ele>82</ele>
        <time>2018-08-26T07:34:47Z</time>
      </trkpt>
      <trkpt lat="48.82276" lon="2.55336">
        <ele>82</ele>
        <time>2018-08-26T07:35:06Z</time>
      </trkpt>
      <trkpt lat="48.82291" lon="2.55339">
        <ele>82.1</ele>
        <time>2018-08-26T07:35:21Z</time>
      </trkpt>
      <trkpt lat="48.82311" lon="2.55334">
        <ele>82.2</ele>
        <time>2018-08-26T07:35:38Z</time>
      </trkpt>
      <trkpt lat="48.82328" lon="2.55327">
        <ele>82.6</ele>
        <time>2018-08-26T07:35:56Z</time>
      </trkpt>
      <trkpt lat="48.82329" lon="2.55326">
        <ele>82.6</ele>
        <time>2018-08-26T07:36:00Z</time>
      </trkpt>
      <trkpt lat="48.82336" lon="2.55324">
        <ele>82.8</ele>
        <time>2018-08-26T07:36:05Z</time>
      </trkpt>
      <trkpt lat="48.82349" lon="2.55324">
        <ele>83.2</ele>
        <time>2018-08-26T07:36:16Z</time>
      </trkpt>
      <trkpt lat="48.82353" lon="2.55328">
        <ele>83.5</ele>
        <time>2018-08-26T07:36:20Z</time>
      </trkpt>
      <trkpt lat="48.82359" lon="2.55328">
        <ele>83.7</ele>
        <time>2018-08-26T07:36:25Z</time>
      </trkpt>
      <trkpt lat="48.82363" lon="2.55324">
        <ele>83.7</ele>
        <time>2018-08-26T07:36:29Z</time>
      </trkpt>
      <trkpt lat="48.82371" lon="2.55315">
        <ele>83.4</ele>
        <time>2018-08-26T07:36:40Z</time>
      </trkpt>
      <trkpt lat="48.82382" lon="2.55295">
        <ele>82.5</ele>
        <time>2018-08-26T07:36:56Z</time>
      </trkpt>
      <trkpt lat="48.82394" lon="2.55282">
        <ele>82.2</ele>
        <time>2018-08-26T07:37:08Z</time>
      </trkpt>
      <trkpt lat="48.82413" lon="2.55281">
        <ele>82.1</ele>
        <time>2018-08-26T07:37:23Z</time>
      </trkpt>
      <trkpt lat="48.82432" lon="2.5529">
        <ele>82.2</ele>
        <time>2018-08-26T07:37:39Z</time>
      </trkpt>
      <trkpt lat="48.82439" lon="2.55296">
        <ele>82.1</ele>
        <time>2018-08-26T07:37:47Z</time>
      </trkpt>
      <trkpt lat="48.82455" lon="2.55307">
        <ele>82.1</ele>
        <time>2018-08-26T07:38:03Z</time>
      </trkpt>
      <trkpt lat="48.82464" lon="2.55314">
        <ele>82.3</ele>
        <time>2018-08-26T07:38:12Z</time>
      </trkpt>
      <trkpt lat="48.82471" lon="2.55318">
        <ele>82.5</ele>
        <time>2018-08-26T07:38:18Z</time>
      </trkpt>
      <trkpt lat="48.82489" lon="2.55331">
        <ele>82.9</ele>
        <time>2018-08-26T07:38:35Z</time>
      </trkpt>
      <trkpt lat="48.82497" lon="2.55338">
        <ele>83</ele>
        <time>2018-08-26T07:38:42Z</time>
      </trkpt>
      <trkpt lat="48.82505" lon="2.55341">
        <ele>83</ele>
        <time>2018-08-26T07:38:59Z</time>
      </trkpt>
      <trkpt lat="48.82507" lon="2.55345">
        <ele>83</ele>
        <time>2018-08-26T07:39:12Z</time>
      </trkpt>
      <trkpt lat="48.82507" lon="2.55352">
        <ele>83</ele>
        <time>2018-08-26T07:39:17Z</time>
      </trkpt>
      <trkpt lat="48.8252" lon="2.55371">
        <ele>83.3</ele>
        <time>2018-08-26T07:39:36Z</time>
      </trkpt>
      <trkpt lat="48.82522" lon="2.55387">
        <ele>83.9</ele>
        <time>2018-08-26T07:39:52Z</time>
      </trkpt>
      <trkpt lat="48.82522" lon="2.55394">
        <ele>84</ele>
        <time>2018-08-26T07:39:57Z</time>
      </trkpt>
      <trkpt lat="48.82521" lon="2.55402">
        <ele>84.1</ele>
        <time>2018-08-26T07:40:02Z</time>
      </trkpt>
      <trkpt lat="48.82514" lon="2.55423">
        <ele>85.1</ele>
        <time>2018-08-26T07:40:14Z</time>
      </trkpt>
      <trkpt lat="48.82506" lon="2.55443">
        <ele>87.5</ele>
        <time>2018-08-26T07:40:27Z</time>
      </trkpt>
      <trkpt lat="48.82498" lon="2.55465">
        <ele>88.1</ele>
        <time>2018-08-26T07:40:41Z</time>
      </trkpt>
      <trkpt lat="48.82496" lon="2.55466">
        <ele>88.2</ele>
        <time>2018-08-26T07:40:43Z</time>
      </trkpt>
      <trkpt lat="48.82495" lon="2.55469">
        <ele>88.3</ele>
        <time>2018-08-26T07:40:45Z</time>
      </trkpt>
      <trkpt lat="48.82494" lon="2.55476">
        <ele>88.6</ele>
        <time>2018-08-26T07:40:50Z</time>
      </trkpt>
      <trkpt lat="48.82492" lon="2.55481">
        <ele>88.8</ele>
        <time>2018-08-26T07:40:53Z</time>
      </trkpt>
      <trkpt lat="48.82483" lon="2.55503">
        <ele>89.7</ele>
        <time>2018-08-26T07:41:10Z</time>
      </trkpt>
      <trkpt lat="48.82482" lon="2.55508">
        <ele>89.9</ele>
        <time>2018-08-26T07:41:13Z</time>
      </trkpt>
      <trkpt lat="48.82478" lon="2.55515">
        <ele>90.3</ele>
        <time>2018-08-26T07:41:28Z</time>
      </trkpt>
      <trkpt lat="48.82469" lon="2.55531">
        <ele>91.3</ele>
        <time>2018-08-26T07:41:42Z</time>
      </trkpt>
      <trkpt lat="48.82461" lon="2.55549">
        <ele>92.3</ele>
        <time>2018-08-26T07:41:57Z</time>
      </trkpt>
      <trkpt lat="48.82461" lon="2.5555">
        <ele>92.3</ele>
        <time>2018-08-26T07:42:01Z</time>
      </trkpt>
      <trkpt lat="48.82458" lon="2.55554">
        <ele>92.5</ele>
        <time>2018-08-26T07:42:05Z</time>
      </trkpt>
      <trkpt lat="48.82458" lon="2.55591">
        <ele>92.8</ele>
        <time>2018-08-26T07:42:24Z</time>
      </trkpt>
      <trkpt lat="48.82458" lon="2.55596">
        <ele>92.9</ele>
        <time>2018-08-26T07:42:27Z</time>
      </trkpt>
      <trkpt lat="48.82462" lon="2.55624">
        <ele>93.8</ele>
        <time>2018-08-26T07:42:45Z</time>
      </trkpt>
      <trkpt lat="48.82465" lon="2.55631">
        <ele>94</ele>
        <time>2018-08-26T07:42:49Z</time>
      </trkpt>
      <trkpt lat="48.82472" lon="2.55646">
        <ele>94.3</ele>
        <time>2018-08-26T07:42:59Z</time>
      </trkpt>
      <trkpt lat="48.82474" lon="2.55652">
        <ele>94.4</ele>
        <time>2018-08-26T07:43:03Z</time>
      </trkpt>
      <trkpt lat="48.82489" lon="2.55671">
        <ele>94.5</ele>
        <time>2018-08-26T07:43:19Z</time>
      </trkpt>
      <trkpt lat="48.82502" lon="2.55684">
        <ele>94.6</ele>
        <time>2018-08-26T07:43:34Z</time>
      </trkpt>
      <trkpt lat="48.82514" lon="2.55695">
        <ele>94.5</ele>
        <time>2018-08-26T07:43:47Z</time>
      </trkpt>
      <trkpt lat="48.82526" lon="2.55706">
        <ele>94.5</ele>
        <time>2018-08-26T07:43:59Z</time>
      </trkpt>
      <trkpt lat="48.8253" lon="2.55711">
        <ele>94.5</ele>
        <time>2018-08-26T07:44:03Z</time>
      </trkpt>
      <trkpt lat="48.82535" lon="2.55716">
        <ele>94.6</ele>
        <time>2018-08-26T07:44:08Z</time>
      </trkpt>
      <trkpt lat="48.82552" lon="2.55727">
        <ele>94.4</ele>
        <time>2018-08-26T07:44:24Z</time>
      </trkpt>
      <trkpt lat="48.82569" lon="2.55742">
        <ele>94.7</ele>
        <time>2018-08-26T07:44:41Z</time>
      </trkpt>
      <trkpt lat="48.8257" lon="2.55743">
        <ele>94.7</ele>
        <time>2018-08-26T07:44:42Z</time>
      </trkpt>
      <trkpt lat="48.82587" lon="2.5576">
        <ele>94.2</ele>
        <time>2018-08-26T07:44:59Z</time>
      </trkpt>
      <trkpt lat="48.82593" lon="2.55764">
        <ele>94.2</ele>
        <time>2018-08-26T07:45:05Z</time>
      </trkpt>
      <trkpt lat="48.82605" lon="2.55776">
        <ele>94.2</ele>
        <time>2018-08-26T07:45:19Z</time>
      </trkpt>
      <trkpt lat="48.82606" lon="2.55778">
        <ele>94.2</ele>
        <time>2018-08-26T07:45:21Z</time>
      </trkpt>
      <trkpt lat="48.82612" lon="2.55805">
        <ele>94</ele>
        <time>2018-08-26T07:45:39Z</time>
      </trkpt>
      <trkpt lat="48.82609" lon="2.55828">
        <ele>94.9</ele>
        <time>2018-08-26T07:45:53Z</time>
      </trkpt>
      <trkpt lat="48.82603" lon="2.55853">
        <ele>95.3</ele>
        <time>2018-08-26T07:46:09Z</time>
      </trkpt>
      <trkpt lat="48.826" lon="2.55874">
        <ele>95.7</ele>
        <time>2018-08-26T07:46:27Z</time>
      </trkpt>
      <trkpt lat="48.82597" lon="2.559">
        <ele>96.2</ele>
        <time>2018-08-26T07:46:43Z</time>
      </trkpt>
      <trkpt lat="48.82596" lon="2.55905">
        <ele>96.3</ele>
        <time>2018-08-26T07:46:46Z</time>
      </trkpt>
      <trkpt lat="48.82592" lon="2.55926">
        <ele>96.7</ele>
        <time>2018-08-26T07:47:03Z</time>
      </trkpt>
      <trkpt lat="48.82589" lon="2.55936">
        <ele>96.8</ele>
        <time>2018-08-26T07:47:18Z</time>
      </trkpt>
      <trkpt lat="48.82585" lon="2.55964">
        <ele>96.9</ele>
        <time>2018-08-26T07:47:35Z</time>
      </trkpt>
      <trkpt lat="48.82583" lon="2.55985">
        <ele>97</ele>
        <time>2018-08-26T07:47:48Z</time>
      </trkpt>
      <trkpt lat="48.8258" lon="2.56013">
        <ele>97.1</ele>
        <time>2018-08-26T07:48:04Z</time>
      </trkpt>
      <trkpt lat="48.82574" lon="2.56042">
        <ele>97.3</ele>
        <time>2018-08-26T07:48:22Z</time>
      </trkpt>
      <trkpt lat="48.8257" lon="2.56066">
        <ele>97.5</ele>
        <time>2018-08-26T07:48:37Z</time>
      </trkpt>
      <trkpt lat="48.82566" lon="2.56075">
        <ele>97.6</ele>
        <time>2018-08-26T07:48:52Z</time>
      </trkpt>
      <trkpt lat="48.82568" lon="2.56089">
        <ele>97.6</ele>
        <time>2018-08-26T07:49:12Z</time>
      </trkpt>
      <trkpt lat="48.82579" lon="2.56087">
        <ele>97.1</ele>
        <time>2018-08-26T07:49:26Z</time>
      </trkpt>
      <trkpt lat="48.82593" lon="2.56082">
        <ele>97</ele>
        <time>2018-08-26T07:49:41Z</time>
      </trkpt>
      <trkpt lat="48.82606" lon="2.56082">
        <ele>97</ele>
        <time>2018-08-26T07:49:57Z</time>
      </trkpt>
      <trkpt lat="48.82621" lon="2.56078">
        <ele>96.7</ele>
        <time>2018-08-26T07:50:10Z</time>
      </trkpt>
      <trkpt lat="48.82623" lon="2.56077">
        <ele>96.6</ele>
        <time>2018-08-26T07:50:12Z</time>
      </trkpt>
      <trkpt lat="48.82631" lon="2.56077">
        <ele>96.3</ele>
        <time>2018-08-26T07:50:26Z</time>
      </trkpt>
      <trkpt lat="48.82633" lon="2.56078">
        <ele>96.2</ele>
        <time>2018-08-26T07:50:42Z</time>
      </trkpt>
      <trkpt lat="48.82631" lon="2.56073">
        <ele>96.3</ele>
        <time>2018-08-26T07:51:00Z</time>
      </trkpt>
      <trkpt lat="48.8263" lon="2.5607">
        <ele>96.3</ele>
        <time>2018-08-26T07:51:16Z</time>
      </trkpt>
      <trkpt lat="48.82627" lon="2.56068">
        <ele>96.4</ele>
        <time>2018-08-26T07:51:39Z</time>
      </trkpt>
      <trkpt lat="48.82628" lon="2.56061">
        <ele>96.4</ele>
        <time>2018-08-26T07:52:05Z</time>
      </trkpt>
      <trkpt lat="48.82629" lon="2.56065">
        <ele>96.4</ele>
        <time>2018-08-26T07:52:18Z</time>
      </trkpt>
      <trkpt lat="48.82616" lon="2.56069">
        <ele>96.8</ele>
        <time>2018-08-26T07:52:32Z</time>
      </trkpt>
      <trkpt lat="48.82598" lon="2.56076">
        <ele>97</ele>
        <time>2018-08-26T07:52:49Z</time>
      </trkpt>
      <trkpt lat="48.82589" lon="2.56081">
        <ele>97</ele>
        <time>2018-08-26T07:52:58Z</time>
      </trkpt>
      <trkpt lat="48.82584" lon="2.56082">
        <ele>97</ele>
        <time>2018-08-26T07:53:02Z</time>
      </trkpt>
      <trkpt lat="48.82576" lon="2.56085">
        <ele>97.3</ele>
        <time>2018-08-26T07:53:09Z</time>
      </trkpt>
      <trkpt lat="48.82573" lon="2.5609">
        <ele>97.4</ele>
        <time>2018-08-26T07:53:13Z</time>
      </trkpt>
      <trkpt lat="48.82567" lon="2.56096">
        <ele>97.6</ele>
        <time>2018-08-26T07:53:20Z</time>
      </trkpt>
      <trkpt lat="48.82558" lon="2.56122">
        <ele>97.5</ele>
        <time>2018-08-26T07:53:37Z</time>
      </trkpt>
      <trkpt lat="48.82551" lon="2.56141">
        <ele>97</ele>
        <time>2018-08-26T07:53:50Z</time>
      </trkpt>
      <trkpt lat="48.82546" lon="2.56166">
        <ele>97</ele>
        <time>2018-08-26T07:54:06Z</time>
      </trkpt>
      <trkpt lat="48.82543" lon="2.56184">
        <ele>97</ele>
        <time>2018-08-26T07:54:21Z</time>
      </trkpt>
      <trkpt lat="48.82536" lon="2.56208">
        <ele>97</ele>
        <time>2018-08-26T07:54:37Z</time>
      </trkpt>
      <trkpt lat="48.82532" lon="2.56234">
        <ele>96.9</ele>
        <time>2018-08-26T07:54:53Z</time>
      </trkpt>
      <trkpt lat="48.82529" lon="2.56238">
        <ele>97</ele>
        <time>2018-08-26T07:54:59Z</time>
      </trkpt>
      <trkpt lat="48.82521" lon="2.56268">
        <ele>97</ele>
        <time>2018-08-26T07:55:17Z</time>
      </trkpt>
      <trkpt lat="48.82518" lon="2.56277">
        <ele>97</ele>
        <time>2018-08-26T07:55:31Z</time>
      </trkpt>
      <trkpt lat="48.82516" lon="2.5629">
        <ele>96.8</ele>
        <time>2018-08-26T07:55:39Z</time>
      </trkpt>
      <trkpt lat="48.82511" lon="2.56307">
        <ele>96.6</ele>
        <time>2018-08-26T07:55:50Z</time>
      </trkpt>
      <trkpt lat="48.8251" lon="2.56311">
        <ele>96.7</ele>
        <time>2018-08-26T07:55:53Z</time>
      </trkpt>
      <trkpt lat="48.82508" lon="2.56319">
        <ele>96.9</ele>
        <time>2018-08-26T07:55:59Z</time>
      </trkpt>
      <trkpt lat="48.82502" lon="2.56346">
        <ele>96.6</ele>
        <time>2018-08-26T07:56:16Z</time>
      </trkpt>
      <trkpt lat="48.825" lon="2.56354">
        <ele>96.3</ele>
        <time>2018-08-26T07:56:21Z</time>
      </trkpt>
      <trkpt lat="48.82495" lon="2.5638">
        <ele>96.7</ele>
        <time>2018-08-26T07:56:38Z</time>
      </trkpt>
      <trkpt lat="48.82493" lon="2.56388">
        <ele>97</ele>
        <time>2018-08-26T07:56:52Z</time>
      </trkpt>
      <trkpt lat="48.82488" lon="2.56407">
        <ele>96.3</ele>
        <time>2018-08-26T07:57:06Z</time>
      </trkpt>
      <trkpt lat="48.8248" lon="2.56434">
        <ele>96</ele>
        <time>2018-08-26T07:57:23Z</time>
      </trkpt>
      <trkpt lat="48.82473" lon="2.56464">
        <ele>96</ele>
        <time>2018-08-26T07:57:41Z</time>
      </trkpt>
      <trkpt lat="48.82464" lon="2.56497">
        <ele>96</ele>
        <time>2018-08-26T07:58:01Z</time>
      </trkpt>
      <trkpt lat="48.82455" lon="2.56528">
        <ele>96</ele>
        <time>2018-08-26T07:58:20Z</time>
      </trkpt>
      <trkpt lat="48.82448" lon="2.56555">
        <ele>96</ele>
        <time>2018-08-26T07:58:37Z</time>
      </trkpt>
      <trkpt lat="48.82443" lon="2.56573">
        <ele>96</ele>
        <time>2018-08-26T07:58:50Z</time>
      </trkpt>
      <trkpt lat="48.82437" lon="2.566">
        <ele>96</ele>
        <time>2018-08-26T07:59:07Z</time>
      </trkpt>
      <trkpt lat="48.82433" lon="2.56612">
        <ele>96</ele>
        <time>2018-08-26T07:59:21Z</time>
      </trkpt>
      <trkpt lat="48.82423" lon="2.56637">
        <ele>96</ele>
        <time>2018-08-26T07:59:39Z</time>
      </trkpt>
      <trkpt lat="48.82422" lon="2.56639">
        <ele>96</ele>
        <time>2018-08-26T07:59:40Z</time>
      </trkpt>
      <trkpt lat="48.82415" lon="2.56655">
        <ele>96</ele>
        <time>2018-08-26T07:59:55Z</time>
      </trkpt>
      <trkpt lat="48.82413" lon="2.56659">
        <ele>96</ele>
        <time>2018-08-26T07:59:58Z</time>
      </trkpt>
      <trkpt lat="48.82411" lon="2.56665">
        <ele>96</ele>
        <time>2018-08-26T08:00:02Z</time>
      </trkpt>
      <trkpt lat="48.82397" lon="2.56691">
        <ele>96</ele>
        <time>2018-08-26T08:00:21Z</time>
      </trkpt>
      <trkpt lat="48.82388" lon="2.56708">
        <ele>96</ele>
        <time>2018-08-26T08:00:38Z</time>
      </trkpt>
      <trkpt lat="48.82382" lon="2.56727">
        <ele>96.4</ele>
        <time>2018-08-26T08:00:51Z</time>
      </trkpt>
      <trkpt lat="48.82374" lon="2.5675">
        <ele>97</ele>
        <time>2018-08-26T08:01:08Z</time>
      </trkpt>
      <trkpt lat="48.82368" lon="2.56762">
        <ele>97</ele>
        <time>2018-08-26T08:01:20Z</time>
      </trkpt>
      <trkpt lat="48.82368" lon="2.56765">
        <ele>97</ele>
        <time>2018-08-26T08:01:22Z</time>
      </trkpt>
      <trkpt lat="48.82359" lon="2.56783">
        <ele>97</ele>
        <time>2018-08-26T08:01:39Z</time>
      </trkpt>
      <trkpt lat="48.82354" lon="2.56792">
        <ele>97</ele>
        <time>2018-08-26T08:01:58Z</time>
      </trkpt>
      <trkpt lat="48.82347" lon="2.56808">
        <ele>97</ele>
        <time>2018-08-26T08:02:12Z</time>
      </trkpt>
      <trkpt lat="48.82342" lon="2.56825">
        <ele>97</ele>
        <time>2018-08-26T08:02:27Z</time>
      </trkpt>
      <trkpt lat="48.82343" lon="2.5683">
        <ele>97</ele>
        <time>2018-08-26T08:02:46Z</time>
      </trkpt>
      <trkpt lat="48.82334" lon="2.56843">
        <ele>97</ele>
        <time>2018-08-26T08:03:01Z</time>
      </trkpt>
      <trkpt lat="48.82328" lon="2.56851">
        <ele>97</ele>
        <time>2018-08-26T08:03:08Z</time>
      </trkpt>
      <trkpt lat="48.82321" lon="2.56868">
        <ele>97</ele>
        <time>2018-08-26T08:03:22Z</time>
      </trkpt>
      <trkpt lat="48.82317" lon="2.56882">
        <ele>97</ele>
        <time>2018-08-26T08:03:35Z</time>
      </trkpt>
      <trkpt lat="48.8231" lon="2.569">
        <ele>97</ele>
        <time>2018-08-26T08:03:52Z</time>
      </trkpt>
      <trkpt lat="48.82304" lon="2.56914">
        <ele>97</ele>
        <time>2018-08-26T08:04:06Z</time>
      </trkpt>
      <trkpt lat="48.82292" lon="2.56937">
        <ele>97.5</ele>
        <time>2018-08-26T08:04:24Z</time>
      </trkpt>
      <trkpt lat="48.82294" lon="2.56945">
        <ele>97.4</ele>
        <time>2018-08-26T08:04:36Z</time>
      </trkpt>
      <trkpt lat="48.82298" lon="2.56948">
        <ele>97.2</ele>
        <time>2018-08-26T08:04:41Z</time>
      </trkpt>
      <trkpt lat="48.82283" lon="2.56941">
        <ele>97.8</ele>
        <time>2018-08-26T08:04:58Z</time>
      </trkpt>
      <trkpt lat="48.82265" lon="2.56924">
        <ele>98</ele>
        <time>2018-08-26T08:05:17Z</time>
      </trkpt>
      <trkpt lat="48.82249" lon="2.56909">
        <ele>98</ele>
        <time>2018-08-26T08:05:33Z</time>
      </trkpt>
      <trkpt lat="48.82231" lon="2.56897">
        <ele>98</ele>
        <time>2018-08-26T08:05:52Z</time>
      </trkpt>
      <trkpt lat="48.82228" lon="2.56894">
        <ele>98</ele>
        <time>2018-08-26T08:05:55Z</time>
      </trkpt>
      <trkpt lat="48.82209" lon="2.56879">
        <ele>98.5</ele>
        <time>2018-08-26T08:06:13Z</time>
      </trkpt>
      <trkpt lat="48.82194" lon="2.56868">
        <ele>99</ele>
        <time>2018-08-26T08:06:29Z</time>
      </trkpt>
      <trkpt lat="48.82184" lon="2.56849">
        <ele>99</ele>
        <time>2018-08-26T08:06:43Z</time>
      </trkpt>
      <trkpt lat="48.82173" lon="2.56844">
        <ele>99</ele>
        <time>2018-08-26T08:06:57Z</time>
      </trkpt>
      <trkpt lat="48.82158" lon="2.56835">
        <ele>99.3</ele>
        <time>2018-08-26T08:07:14Z</time>
      </trkpt>
      <trkpt lat="48.82142" lon="2.56821">
        <ele>99.9</ele>
        <time>2018-08-26T08:07:31Z</time>
      </trkpt>
      <trkpt lat="48.82139" lon="2.56818">
        <ele>100</ele>
        <time>2018-08-26T08:07:49Z</time>
      </trkpt>
      <trkpt lat="48.82126" lon="2.56806">
        <ele>100</ele>
        <time>2018-08-26T08:08:05Z</time>
      </trkpt>
      <trkpt lat="48.82114" lon="2.56794">
        <ele>100</ele>
        <time>2018-08-26T08:08:19Z</time>
      </trkpt>
      <trkpt lat="48.82103" lon="2.56781">
        <ele>100</ele>
        <time>2018-08-26T08:08:34Z</time>
      </trkpt>
      <trkpt lat="48.82101" lon="2.56772">
        <ele>100</ele>
        <time>2018-08-26T08:08:49Z</time>
      </trkpt>
      <trkpt lat="48.82094" lon="2.56769">
        <ele>100</ele>
        <time>2018-08-26T08:08:58Z</time>
      </trkpt>
      <trkpt lat="48.82077" lon="2.56761">
        <ele>100.2</ele>
        <time>2018-08-26T08:09:14Z</time>
      </trkpt>
      <trkpt lat="48.82054" lon="2.56744">
        <ele>101</ele>
        <time>2018-08-26T08:09:36Z</time>
      </trkpt>
      <trkpt lat="48.82039" lon="2.56733">
        <ele>101</ele>
        <time>2018-08-26T08:09:52Z</time>
      </trkpt>
      <trkpt lat="48.82022" lon="2.56718">
        <ele>101.2</ele>
        <time>2018-08-26T08:10:09Z</time>
      </trkpt>
      <trkpt lat="48.8201" lon="2.56701">
        <ele>101.7</ele>
        <time>2018-08-26T08:10:24Z</time>
      </trkpt>
      <trkpt lat="48.82009" lon="2.56701">
        <ele>101.7</ele>
        <time>2018-08-26T08:10:25Z</time>
      </trkpt>
      <trkpt lat="48.81995" lon="2.56691">
        <ele>102</ele>
        <time>2018-08-26T08:10:40Z</time>
      </trkpt>
      <trkpt lat="48.81983" lon="2.56683">
        <ele>102</ele>
        <time>2018-08-26T08:10:55Z</time>
      </trkpt>
      <trkpt lat="48.81972" lon="2.56678">
        <ele>102</ele>
        <time>2018-08-26T08:11:06Z</time>
      </trkpt>
      <trkpt lat="48.81964" lon="2.56681">
        <ele>102.3</ele>
        <time>2018-08-26T08:11:20Z</time>
      </trkpt>
      <trkpt lat="48.81962" lon="2.56685">
        <ele>102.4</ele>
        <time>2018-08-26T08:11:25Z</time>
      </trkpt>
      <trkpt lat="48.81957" lon="2.56693">
        <ele>102.5</ele>
        <time>2018-08-26T08:11:32Z</time>
      </trkpt>
      <trkpt lat="48.8194" lon="2.567">
        <ele>103</ele>
        <time>2018-08-26T08:11:50Z</time>
      </trkpt>
      <trkpt lat="48.81934" lon="2.56701">
        <ele>103</ele>
        <time>2018-08-26T08:12:10Z</time>
      </trkpt>
      <trkpt lat="48.81926" lon="2.56698">
        <ele>103</ele>
        <time>2018-08-26T08:12:19Z</time>
      </trkpt>
      <trkpt lat="48.81912" lon="2.56687">
        <ele>103</ele>
        <time>2018-08-26T08:12:32Z</time>
      </trkpt>
      <trkpt lat="48.81897" lon="2.56675">
        <ele>103</ele>
        <time>2018-08-26T08:12:49Z</time>
      </trkpt>
      <trkpt lat="48.81881" lon="2.56661">
        <ele>103.1</ele>
        <time>2018-08-26T08:13:05Z</time>
      </trkpt>
      <trkpt lat="48.81874" lon="2.56653">
        <ele>103.3</ele>
        <time>2018-08-26T08:13:19Z</time>
      </trkpt>
      <trkpt lat="48.8186" lon="2.56642">
        <ele>103.9</ele>
        <time>2018-08-26T08:13:35Z</time>
      </trkpt>
      <trkpt lat="48.81857" lon="2.56623">
        <ele>104</ele>
        <time>2018-08-26T08:13:50Z</time>
      </trkpt>
      <trkpt lat="48.81862" lon="2.56604">
        <ele>104</ele>
        <time>2018-08-26T08:14:06Z</time>
      </trkpt>
      <trkpt lat="48.81867" lon="2.56604">
        <ele>104</ele>
        <time>2018-08-26T08:14:19Z</time>
      </trkpt>
      <trkpt lat="48.81871" lon="2.56608">
        <ele>104</ele>
        <time>2018-08-26T08:14:38Z</time>
      </trkpt>
      <trkpt lat="48.81872" lon="2.5661">
        <ele>104</ele>
        <time>2018-08-26T08:15:03Z</time>
      </trkpt>
      <trkpt lat="48.81873" lon="2.5662">
        <ele>103.9</ele>
        <time>2018-08-26T08:15:17Z</time>
      </trkpt>
      <trkpt lat="48.81874" lon="2.56622">
        <ele>103.8</ele>
        <time>2018-08-26T08:15:35Z</time>
      </trkpt>
      <trkpt lat="48.81877" lon="2.56621">
        <ele>103.8</ele>
        <time>2018-08-26T08:15:59Z</time>
      </trkpt>
      <trkpt lat="48.81882" lon="2.56619">
        <ele>103.8</ele>
        <time>2018-08-26T08:16:18Z</time>
      </trkpt>
      <trkpt lat="48.81893" lon="2.5662">
        <ele>103.7</ele>
        <time>2018-08-26T08:16:30Z</time>
      </trkpt>
      <trkpt lat="48.81904" lon="2.56623">
        <ele>103.6</ele>
        <time>2018-08-26T08:16:44Z</time>
      </trkpt>
      <trkpt lat="48.81902" lon="2.56628">
        <ele>103.4</ele>
        <time>2018-08-26T08:17:02Z</time>
      </trkpt>
      <trkpt lat="48.81905" lon="2.56623">
        <ele>103.6</ele>
        <time>2018-08-26T08:17:25Z</time>
      </trkpt>
      <trkpt lat="48.81914" lon="2.56605">
        <ele>104</ele>
        <time>2018-08-26T08:17:39Z</time>
      </trkpt>
      <trkpt lat="48.81926" lon="2.56601">
        <ele>103.7</ele>
        <time>2018-08-26T08:17:54Z</time>
      </trkpt>
      <trkpt lat="48.81934" lon="2.56616">
        <ele>103.3</ele>
        <time>2018-08-26T08:18:12Z</time>
      </trkpt>
      <trkpt lat="48.81934" lon="2.56619">
        <ele>103.3</ele>
        <time>2018-08-26T08:18:23Z</time>
      </trkpt>
      <trkpt lat="48.81937" lon="2.56619">
        <ele>103.2</ele>
        <time>2018-08-26T08:18:26Z</time>
      </trkpt>
      <trkpt lat="48.81939" lon="2.5662">
        <ele>103.1</ele>
        <time>2018-08-26T08:18:28Z</time>
      </trkpt>
      <trkpt lat="48.81951" lon="2.56637">
        <ele>103</ele>
        <time>2018-08-26T08:18:45Z</time>
      </trkpt>
      <trkpt lat="48.81945" lon="2.56653">
        <ele>103</ele>
        <time>2018-08-26T08:19:01Z</time>
      </trkpt>
      <trkpt lat="48.81947" lon="2.56658">
        <ele>102.9</ele>
        <time>2018-08-26T08:19:15Z</time>
      </trkpt>
      <trkpt lat="48.81935" lon="2.56672">
        <ele>103</ele>
        <time>2018-08-26T08:19:33Z</time>
      </trkpt>
      <trkpt lat="48.81925" lon="2.56673">
        <ele>103</ele>
        <time>2018-08-26T08:19:51Z</time>
      </trkpt>
      <trkpt lat="48.81919" lon="2.56668">
        <ele>103</ele>
        <time>2018-08-26T08:20:11Z</time>
      </trkpt>
      <trkpt lat="48.81908" lon="2.56658">
        <ele>103</ele>
        <time>2018-08-26T08:20:27Z</time>
      </trkpt>
      <trkpt lat="48.81895" lon="2.56648">
        <ele>103</ele>
        <time>2018-08-26T08:20:43Z</time>
      </trkpt>
      <trkpt lat="48.81885" lon="2.56642">
        <ele>103.1</ele>
        <time>2018-08-26T08:20:58Z</time>
      </trkpt>
      <trkpt lat="48.81882" lon="2.5665">
        <ele>103.2</ele>
        <time>2018-08-26T08:21:13Z</time>
      </trkpt>
      <trkpt lat="48.8188" lon="2.56648">
        <ele>103.2</ele>
        <time>2018-08-26T08:21:38Z</time>
      </trkpt>
      <trkpt lat="48.81874" lon="2.56642">
        <ele>103.5</ele>
        <time>2018-08-26T08:21:53Z</time>
      </trkpt>
      <trkpt lat="48.81873" lon="2.56641">
        <ele>103.5</ele>
        <time>2018-08-26T08:22:13Z</time>
      </trkpt>
      <trkpt lat="48.8187" lon="2.56639">
        <ele>103.7</ele>
        <time>2018-08-26T08:22:29Z</time>
      </trkpt>
      <trkpt lat="48.81867" lon="2.56633">
        <ele>103.8</ele>
        <time>2018-08-26T08:22:45Z</time>
      </trkpt>
      <trkpt lat="48.81868" lon="2.5662">
        <ele>103.9</ele>
        <time>2018-08-26T08:22:58Z</time>
      </trkpt>
      <trkpt lat="48.81874" lon="2.56616">
        <ele>103.9</ele>
        <time>2018-08-26T08:23:17Z</time>
      </trkpt>
      <trkpt lat="48.8187" lon="2.5661">
        <ele>104</ele>
        <time>2018-08-26T08:23:30Z</time>
      </trkpt>
      <trkpt lat="48.81865" lon="2.56598">
        <ele>104</ele>
        <time>2018-08-26T08:23:44Z</time>
      </trkpt>
      <trkpt lat="48.81863" lon="2.566">
        <ele>104</ele>
        <time>2018-08-26T08:23:47Z</time>
      </trkpt>
      <trkpt lat="48.81855" lon="2.56618">
        <ele>104</ele>
        <time>2018-08-26T08:24:05Z</time>
      </trkpt>
      <trkpt lat="48.81855" lon="2.56634">
        <ele>104</ele>
        <time>2018-08-26T08:24:21Z</time>
      </trkpt>
      <trkpt lat="48.81857" lon="2.5664">
        <ele>104</ele>
        <time>2018-08-26T08:24:28Z</time>
      </trkpt>
      <trkpt lat="48.81873" lon="2.56653">
        <ele>103.3</ele>
        <time>2018-08-26T08:24:45Z</time>
      </trkpt>
      <trkpt lat="48.8188" lon="2.5666">
        <ele>103.1</ele>
        <time>2018-08-26T08:24:53Z</time>
      </trkpt>
      <trkpt lat="48.81886" lon="2.56664">
        <ele>103</ele>
        <time>2018-08-26T08:24:59Z</time>
      </trkpt>
      <trkpt lat="48.8189" lon="2.56666">
        <ele>103</ele>
        <time>2018-08-26T08:25:03Z</time>
      </trkpt>
      <trkpt lat="48.81906" lon="2.56681">
        <ele>103</ele>
        <time>2018-08-26T08:25:19Z</time>
      </trkpt>
      <trkpt lat="48.81923" lon="2.56694">
        <ele>103</ele>
        <time>2018-08-26T08:25:37Z</time>
      </trkpt>
      <trkpt lat="48.81932" lon="2.56701">
        <ele>103</ele>
        <time>2018-08-26T08:25:50Z</time>
      </trkpt>
      <trkpt lat="48.81941" lon="2.56702">
        <ele>103</ele>
        <time>2018-08-26T08:25:58Z</time>
      </trkpt>
      <trkpt lat="48.8195" lon="2.56691">
        <ele>102.8</ele>
        <time>2018-08-26T08:26:10Z</time>
      </trkpt>
      <trkpt lat="48.81951" lon="2.56686">
        <ele>102.8</ele>
        <time>2018-08-26T08:26:13Z</time>
      </trkpt>
      <trkpt lat="48.81958" lon="2.56673">
        <ele>102.5</ele>
        <time>2018-08-26T08:26:23Z</time>
      </trkpt>
      <trkpt lat="48.81964" lon="2.56668">
        <ele>102.3</ele>
        <time>2018-08-26T08:26:31Z</time>
      </trkpt>
      <trkpt lat="48.81973" lon="2.56671">
        <ele>102</ele>
        <time>2018-08-26T08:26:45Z</time>
      </trkpt>
      <trkpt lat="48.81986" lon="2.56683">
        <ele>102</ele>
        <time>2018-08-26T08:27:00Z</time>
      </trkpt>
      <trkpt lat="48.81999" lon="2.56694">
        <ele>102</ele>
        <time>2018-08-26T08:27:15Z</time>
      </trkpt>
      <trkpt lat="48.82007" lon="2.567">
        <ele>101.8</ele>
        <time>2018-08-26T08:27:21Z</time>
      </trkpt>
      <trkpt lat="48.82028" lon="2.56718">
        <ele>101</ele>
        <time>2018-08-26T08:27:42Z</time>
      </trkpt>
      <trkpt lat="48.82031" lon="2.56723">
        <ele>101</ele>
        <time>2018-08-26T08:27:56Z</time>
      </trkpt>
      <trkpt lat="48.8204" lon="2.56728">
        <ele>101</ele>
        <time>2018-08-26T08:28:03Z</time>
      </trkpt>
      <trkpt lat="48.82042" lon="2.56726">
        <ele>101</ele>
        <time>2018-08-26T08:28:05Z</time>
      </trkpt>
      <trkpt lat="48.82056" lon="2.56699">
        <ele>100.2</ele>
        <time>2018-08-26T08:28:24Z</time>
      </trkpt>
      <trkpt lat="48.82062" lon="2.56683">
        <ele>100.4</ele>
        <time>2018-08-26T08:28:39Z</time>
      </trkpt>
      <trkpt lat="48.82066" lon="2.5667">
        <ele>100.9</ele>
        <time>2018-08-26T08:29:01Z</time>
      </trkpt>
      <trkpt lat="48.82077" lon="2.56646">
        <ele>100.3</ele>
        <time>2018-08-26T08:29:18Z</time>
      </trkpt>
      <trkpt lat="48.82082" lon="2.56634">
        <ele>100</ele>
        <time>2018-08-26T08:29:31Z</time>
      </trkpt>
      <trkpt lat="48.8209" lon="2.56615">
        <ele>100</ele>
        <time>2018-08-26T08:29:47Z</time>
      </trkpt>
      <trkpt lat="48.82099" lon="2.56594">
        <ele>100</ele>
        <time>2018-08-26T08:30:03Z</time>
      </trkpt>
      <trkpt lat="48.82106" lon="2.56573">
        <ele>100</ele>
        <time>2018-08-26T08:30:20Z</time>
      </trkpt>
      <trkpt lat="48.82113" lon="2.56575">
        <ele>99.9</ele>
        <time>2018-08-26T08:30:26Z</time>
      </trkpt>
      <trkpt lat="48.82117" lon="2.56577">
        <ele>99.8</ele>
        <time>2018-08-26T08:30:30Z</time>
      </trkpt>
      <trkpt lat="48.82121" lon="2.5658">
        <ele>99.6</ele>
        <time>2018-08-26T08:30:34Z</time>
      </trkpt>
      <trkpt lat="48.82128" lon="2.56586">
        <ele>99.5</ele>
        <time>2018-08-26T08:30:41Z</time>
      </trkpt>
      <trkpt lat="48.82144" lon="2.56606">
        <ele>99.7</ele>
        <time>2018-08-26T08:31:00Z</time>
      </trkpt>
      <trkpt lat="48.82156" lon="2.56619">
        <ele>99.4</ele>
        <time>2018-08-26T08:31:16Z</time>
      </trkpt>
      <trkpt lat="48.82164" lon="2.5663">
        <ele>99.1</ele>
        <time>2018-08-26T08:31:39Z</time>
      </trkpt>
      <trkpt lat="48.82177" lon="2.56642">
        <ele>99</ele>
        <time>2018-08-26T08:31:54Z</time>
      </trkpt>
      <trkpt lat="48.82186" lon="2.56657">
        <ele>99</ele>
        <time>2018-08-26T08:32:07Z</time>
      </trkpt>
      <trkpt lat="48.82197" lon="2.56663">
        <ele>98.9</ele>
        <time>2018-08-26T08:32:18Z</time>
      </trkpt>
      <trkpt lat="48.82206" lon="2.56673">
        <ele>98.7</ele>
        <time>2018-08-26T08:32:28Z</time>
      </trkpt>
      <trkpt lat="48.82221" lon="2.56685">
        <ele>98.7</ele>
        <time>2018-08-26T08:32:45Z</time>
      </trkpt>
      <trkpt lat="48.82221" lon="2.56688">
        <ele>98.8</ele>
        <time>2018-08-26T08:32:56Z</time>
      </trkpt>
      <trkpt lat="48.82224" lon="2.56693">
        <ele>98.9</ele>
        <time>2018-08-26T08:33:13Z</time>
      </trkpt>
      <trkpt lat="48.82234" lon="2.56698">
        <ele>98.6</ele>
        <time>2018-08-26T08:33:27Z</time>
      </trkpt>
      <trkpt lat="48.82239" lon="2.56703">
        <ele>98.4</ele>
        <time>2018-08-26T08:33:33Z</time>
      </trkpt>
      <trkpt lat="48.82255" lon="2.5672">
        <ele>98</ele>
        <time>2018-08-26T08:33:51Z</time>
      </trkpt>
      <trkpt lat="48.82259" lon="2.56729">
        <ele>98</ele>
        <time>2018-08-26T08:34:06Z</time>
      </trkpt>
      <trkpt lat="48.82262" lon="2.56728">
        <ele>98</ele>
        <time>2018-08-26T08:34:20Z</time>
      </trkpt>
      <trkpt lat="48.82265" lon="2.5673">
        <ele>98</ele>
        <time>2018-08-26T08:34:25Z</time>
      </trkpt>
      <trkpt lat="48.82272" lon="2.56737">
        <ele>98</ele>
        <time>2018-08-26T08:34:41Z</time>
      </trkpt>
      <trkpt lat="48.82275" lon="2.56742">
        <ele>98</ele>
        <time>2018-08-26T08:34:57Z</time>
      </trkpt>
      <trkpt lat="48.82274" lon="2.56746">
        <ele>98</ele>
        <time>2018-08-26T08:35:26Z</time>
      </trkpt>
      <trkpt lat="48.82284" lon="2.56753">
        <ele>97.8</ele>
        <time>2018-08-26T08:35:46Z</time>
      </trkpt>
      <trkpt lat="48.82297" lon="2.56765">
        <ele>97.3</ele>
        <time>2018-08-26T08:36:02Z</time>
      </trkpt>
      <trkpt lat="48.82312" lon="2.56778">
        <ele>97</ele>
        <time>2018-08-26T08:36:20Z</time>
      </trkpt>
      <trkpt lat="48.82328" lon="2.56793">
        <ele>97</ele>
        <time>2018-08-26T08:36:37Z</time>
      </trkpt>
      <trkpt lat="48.82344" lon="2.56808">
        <ele>97</ele>
        <time>2018-08-26T08:36:55Z</time>
      </trkpt>
      <trkpt lat="48.82353" lon="2.56815">
        <ele>97</ele>
        <time>2018-08-26T08:37:04Z</time>
      </trkpt>
      <trkpt lat="48.82361" lon="2.56822">
        <ele>97</ele>
        <time>2018-08-26T08:37:19Z</time>
      </trkpt>
      <trkpt lat="48.82368" lon="2.56827">
        <ele>96.9</ele>
        <time>2018-08-26T08:37:39Z</time>
      </trkpt>
      <trkpt lat="48.82374" lon="2.56836">
        <ele>97</ele>
        <time>2018-08-26T08:37:48Z</time>
      </trkpt>
      <trkpt lat="48.82387" lon="2.56852">
        <ele>97</ele>
        <time>2018-08-26T08:38:05Z</time>
      </trkpt>
      <trkpt lat="48.82402" lon="2.56865">
        <ele>96.5</ele>
        <time>2018-08-26T08:38:21Z</time>
      </trkpt>
      <trkpt lat="48.82418" lon="2.56876">
        <ele>96</ele>
        <time>2018-08-26T08:38:38Z</time>
      </trkpt>
      <trkpt lat="48.82421" lon="2.56877">
        <ele>96.1</ele>
        <time>2018-08-26T08:38:54Z</time>
      </trkpt>
      <trkpt lat="48.82421" lon="2.5688">
        <ele>96.1</ele>
        <time>2018-08-26T08:39:11Z</time>
      </trkpt>
      <trkpt lat="48.82424" lon="2.56887">
        <ele>96.2</ele>
        <time>2018-08-26T08:39:26Z</time>
      </trkpt>
      <trkpt lat="48.8242" lon="2.56897">
        <ele>96.4</ele>
        <time>2018-08-26T08:39:39Z</time>
      </trkpt>
      <trkpt lat="48.82412" lon="2.56916">
        <ele>97</ele>
        <time>2018-08-26T08:39:56Z</time>
      </trkpt>
      <trkpt lat="48.82408" lon="2.56938">
        <ele>97</ele>
        <time>2018-08-26T08:40:12Z</time>
      </trkpt>
      <trkpt lat="48.82404" lon="2.56959">
        <ele>97.3</ele>
        <time>2018-08-26T08:40:27Z</time>
      </trkpt>
      <trkpt lat="48.82405" lon="2.56966">
        <ele>97.4</ele>
        <time>2018-08-26T08:40:32Z</time>
      </trkpt>
      <trkpt lat="48.82415" lon="2.56971">
        <ele>97.9</ele>
        <time>2018-08-26T08:40:47Z</time>
      </trkpt>
      <trkpt lat="48.82422" lon="2.56972">
        <ele>98</ele>
        <time>2018-08-26T08:41:02Z</time>
      </trkpt>
      <trkpt lat="48.82434" lon="2.56972">
        <ele>98</ele>
        <time>2018-08-26T08:41:17Z</time>
      </trkpt>
      <trkpt lat="48.82437" lon="2.5697">
        <ele>98</ele>
        <time>2018-08-26T08:41:34Z</time>
      </trkpt>
      <trkpt lat="48.82437" lon="2.5697">
        <ele>98</ele>
        <time>2018-08-26T08:41:52Z</time>
      </trkpt>
      <trkpt lat="48.82453" lon="2.56973">
        <ele>98</ele>
        <time>2018-08-26T08:42:07Z</time>
      </trkpt>
      <trkpt lat="48.82462" lon="2.5697">
        <ele>98</ele>
        <time>2018-08-26T08:42:16Z</time>
      </trkpt>
      <trkpt lat="48.82483" lon="2.5697">
        <ele>98</ele>
        <time>2018-08-26T08:42:35Z</time>
      </trkpt>
      <trkpt lat="48.82499" lon="2.56966">
        <ele>98</ele>
        <time>2018-08-26T08:42:50Z</time>
      </trkpt>
      <trkpt lat="48.82505" lon="2.56963">
        <ele>97.9</ele>
        <time>2018-08-26T08:42:54Z</time>
      </trkpt>
      <trkpt lat="48.82514" lon="2.56941">
        <ele>97.5</ele>
        <time>2018-08-26T08:43:11Z</time>
      </trkpt>
      <trkpt lat="48.82516" lon="2.56932">
        <ele>97.4</ele>
        <time>2018-08-26T08:43:22Z</time>
      </trkpt>
      <trkpt lat="48.82523" lon="2.56907">
        <ele>97.1</ele>
        <time>2018-08-26T08:43:38Z</time>
      </trkpt>
      <trkpt lat="48.8253" lon="2.5688">
        <ele>96.7</ele>
        <time>2018-08-26T08:43:56Z</time>
      </trkpt>
      <trkpt lat="48.82535" lon="2.56866">
        <ele>96.2</ele>
        <time>2018-08-26T08:44:15Z</time>
      </trkpt>
      <trkpt lat="48.82537" lon="2.56857">
        <ele>96</ele>
        <time>2018-08-26T08:44:29Z</time>
      </trkpt>
      <trkpt lat="48.82537" lon="2.56851">
        <ele>96</ele>
        <time>2018-08-26T08:44:41Z</time>
      </trkpt>
      <trkpt lat="48.82542" lon="2.56837">
        <ele>96</ele>
        <time>2018-08-26T08:44:57Z</time>
      </trkpt>
      <trkpt lat="48.82549" lon="2.56814">
        <ele>96</ele>
        <time>2018-08-26T08:45:12Z</time>
      </trkpt>
      <trkpt lat="48.82554" lon="2.56792">
        <ele>96</ele>
        <time>2018-08-26T08:45:28Z</time>
      </trkpt>
      <trkpt lat="48.82561" lon="2.56769">
        <ele>95.9</ele>
        <time>2018-08-26T08:45:44Z</time>
      </trkpt>
      <trkpt lat="48.8257" lon="2.56738">
        <ele>95.5</ele>
        <time>2018-08-26T08:46:03Z</time>
      </trkpt>
      <trkpt lat="48.82573" lon="2.56724">
        <ele>95.4</ele>
        <time>2018-08-26T08:46:12Z</time>
      </trkpt>
      <trkpt lat="48.82563" lon="2.56704">
        <ele>95.2</ele>
        <time>2018-08-26T08:46:28Z</time>
      </trkpt>
      <trkpt lat="48.82562" lon="2.56701">
        <ele>95.2</ele>
        <time>2018-08-26T08:46:30Z</time>
      </trkpt>
      <trkpt lat="48.82549" lon="2.56693">
        <ele>95</ele>
        <time>2018-08-26T08:46:41Z</time>
      </trkpt>
      <trkpt lat="48.82546" lon="2.56691">
        <ele>95</ele>
        <time>2018-08-26T08:46:44Z</time>
      </trkpt>
      <trkpt lat="48.82528" lon="2.5668">
        <ele>95.5</ele>
        <time>2018-08-26T08:47:01Z</time>
      </trkpt>
      <trkpt lat="48.82518" lon="2.56677">
        <ele>95.4</ele>
        <time>2018-08-26T08:47:15Z</time>
      </trkpt>
      <trkpt lat="48.82502" lon="2.56667">
        <ele>95.1</ele>
        <time>2018-08-26T08:47:32Z</time>
      </trkpt>
      <trkpt lat="48.82492" lon="2.56661">
        <ele>95.3</ele>
        <time>2018-08-26T08:47:41Z</time>
      </trkpt>
      <trkpt lat="48.82475" lon="2.56645">
        <ele>95.9</ele>
        <time>2018-08-26T08:47:58Z</time>
      </trkpt>
      <trkpt lat="48.82459" lon="2.56629">
        <ele>96</ele>
        <time>2018-08-26T08:48:15Z</time>
      </trkpt>
      <trkpt lat="48.82443" lon="2.56615">
        <ele>96</ele>
        <time>2018-08-26T08:48:32Z</time>
      </trkpt>
      <trkpt lat="48.82436" lon="2.56599">
        <ele>96</ele>
        <time>2018-08-26T08:48:46Z</time>
      </trkpt>
      <trkpt lat="48.82444" lon="2.56572">
        <ele>96</ele>
        <time>2018-08-26T08:49:04Z</time>
      </trkpt>
      <trkpt lat="48.82453" lon="2.56543">
        <ele>96</ele>
        <time>2018-08-26T08:49:23Z</time>
      </trkpt>
      <trkpt lat="48.82459" lon="2.56527">
        <ele>96</ele>
        <time>2018-08-26T08:49:33Z</time>
      </trkpt>
      <trkpt lat="48.82465" lon="2.56507">
        <ele>96</ele>
        <time>2018-08-26T08:49:49Z</time>
      </trkpt>
      <trkpt lat="48.82471" lon="2.56492">
        <ele>96</ele>
        <time>2018-08-26T08:50:04Z</time>
      </trkpt>
      <trkpt lat="48.82472" lon="2.56474">
        <ele>96</ele>
        <time>2018-08-26T08:50:18Z</time>
      </trkpt>
      <trkpt lat="48.82479" lon="2.56457">
        <ele>96</ele>
        <time>2018-08-26T08:50:30Z</time>
      </trkpt>
      <trkpt lat="48.82486" lon="2.56426">
        <ele>96</ele>
        <time>2018-08-26T08:50:48Z</time>
      </trkpt>
      <trkpt lat="48.82492" lon="2.56397">
        <ele>96.7</ele>
        <time>2018-08-26T08:51:06Z</time>
      </trkpt>
      <trkpt lat="48.82494" lon="2.56391">
        <ele>96.9</ele>
        <time>2018-08-26T08:51:19Z</time>
      </trkpt>
      <trkpt lat="48.82489" lon="2.56395">
        <ele>96.8</ele>
        <time>2018-08-26T08:51:36Z</time>
      </trkpt>
      <trkpt lat="48.82496" lon="2.56375">
        <ele>96.6</ele>
        <time>2018-08-26T08:51:50Z</time>
      </trkpt>
      <trkpt lat="48.82505" lon="2.56348">
        <ele>96.5</ele>
        <time>2018-08-26T08:52:08Z</time>
      </trkpt>
      <trkpt lat="48.82513" lon="2.56321">
        <ele>96.8</ele>
        <time>2018-08-26T08:52:24Z</time>
      </trkpt>
      <trkpt lat="48.82518" lon="2.56296">
        <ele>96.6</ele>
        <time>2018-08-26T08:52:39Z</time>
      </trkpt>
      <trkpt lat="48.82526" lon="2.56267">
        <ele>97</ele>
        <time>2018-08-26T08:52:56Z</time>
      </trkpt>
      <trkpt lat="48.82535" lon="2.56234">
        <ele>96.9</ele>
        <time>2018-08-26T08:53:15Z</time>
      </trkpt>
      <trkpt lat="48.82539" lon="2.56216">
        <ele>97</ele>
        <time>2018-08-26T08:53:26Z</time>
      </trkpt>
      <trkpt lat="48.82546" lon="2.56189">
        <ele>97</ele>
        <time>2018-08-26T08:53:44Z</time>
      </trkpt>
      <trkpt lat="48.82549" lon="2.5617">
        <ele>97</ele>
        <time>2018-08-26T08:54:01Z</time>
      </trkpt>
      <trkpt lat="48.82557" lon="2.56144">
        <ele>97</ele>
        <time>2018-08-26T08:54:19Z</time>
      </trkpt>
      <trkpt lat="48.8256" lon="2.56129">
        <ele>97.3</ele>
        <time>2018-08-26T08:54:32Z</time>
      </trkpt>
      <trkpt lat="48.82562" lon="2.56122">
        <ele>97.5</ele>
        <time>2018-08-26T08:54:37Z</time>
      </trkpt>
      <trkpt lat="48.82565" lon="2.56112">
        <ele>97.7</ele>
        <time>2018-08-26T08:54:44Z</time>
      </trkpt>
      <trkpt lat="48.82566" lon="2.561">
        <ele>97.6</ele>
        <time>2018-08-26T08:54:50Z</time>
      </trkpt>
      <trkpt lat="48.82568" lon="2.56092">
        <ele>97.6</ele>
        <time>2018-08-26T08:54:54Z</time>
      </trkpt>
      <trkpt lat="48.82571" lon="2.56088">
        <ele>97.5</ele>
        <time>2018-08-26T08:54:57Z</time>
      </trkpt>
      <trkpt lat="48.82588" lon="2.56077">
        <ele>97</ele>
        <time>2018-08-26T08:55:14Z</time>
      </trkpt>
      <trkpt lat="48.8261" lon="2.56075">
        <ele>97</ele>
        <time>2018-08-26T08:55:32Z</time>
      </trkpt>
      <trkpt lat="48.82627" lon="2.5607">
        <ele>96.4</ele>
        <time>2018-08-26T08:55:49Z</time>
      </trkpt>
      <trkpt lat="48.82642" lon="2.56053">
        <ele>96</ele>
        <time>2018-08-26T08:56:05Z</time>
      </trkpt>
      <trkpt lat="48.82653" lon="2.56032">
        <ele>95.6</ele>
        <time>2018-08-26T08:56:20Z</time>
      </trkpt>
      <trkpt lat="48.82659" lon="2.56018">
        <ele>95.3</ele>
        <time>2018-08-26T08:56:32Z</time>
      </trkpt>
      <trkpt lat="48.82659" lon="2.56012">
        <ele>95.3</ele>
        <time>2018-08-26T08:56:48Z</time>
      </trkpt>
      <trkpt lat="48.82661" lon="2.5601">
        <ele>95.2</ele>
        <time>2018-08-26T08:57:06Z</time>
      </trkpt>
      <trkpt lat="48.82663" lon="2.56004">
        <ele>95.1</ele>
        <time>2018-08-26T08:57:10Z</time>
      </trkpt>
      <trkpt lat="48.82669" lon="2.55992">
        <ele>95</ele>
        <time>2018-08-26T08:57:26Z</time>
      </trkpt>
      <trkpt lat="48.82676" lon="2.55978">
        <ele>95</ele>
        <time>2018-08-26T08:57:42Z</time>
      </trkpt>
      <trkpt lat="48.82682" lon="2.5596">
        <ele>94.6</ele>
        <time>2018-08-26T08:57:57Z</time>
      </trkpt>
      <trkpt lat="48.82689" lon="2.5594">
        <ele>94</ele>
        <time>2018-08-26T08:58:12Z</time>
      </trkpt>
      <trkpt lat="48.8269" lon="2.55942">
        <ele>94</ele>
        <time>2018-08-26T08:58:19Z</time>
      </trkpt>
      <trkpt lat="48.82693" lon="2.55922">
        <ele>94</ele>
        <time>2018-08-26T08:58:32Z</time>
      </trkpt>
      <trkpt lat="48.82696" lon="2.55916">
        <ele>94</ele>
        <time>2018-08-26T08:58:37Z</time>
      </trkpt>
      <trkpt lat="48.82697" lon="2.55911">
        <ele>94</ele>
        <time>2018-08-26T08:58:42Z</time>
      </trkpt>
      <trkpt lat="48.82704" lon="2.55893">
        <ele>93.7</ele>
        <time>2018-08-26T08:58:56Z</time>
      </trkpt>
      <trkpt lat="48.82706" lon="2.55888">
        <ele>93.6</ele>
        <time>2018-08-26T08:58:59Z</time>
      </trkpt>
      <trkpt lat="48.82713" lon="2.55873">
        <ele>93.3</ele>
        <time>2018-08-26T08:59:09Z</time>
      </trkpt>
      <trkpt lat="48.82714" lon="2.55864">
        <ele>93.3</ele>
        <time>2018-08-26T08:59:14Z</time>
      </trkpt>
      <trkpt lat="48.82716" lon="2.55857">
        <ele>93.1</ele>
        <time>2018-08-26T08:59:18Z</time>
      </trkpt>
      <trkpt lat="48.82721" lon="2.55843">
        <ele>92.4</ele>
        <time>2018-08-26T08:59:27Z</time>
      </trkpt>
      <trkpt lat="48.82731" lon="2.55819">
        <ele>91.1</ele>
        <time>2018-08-26T08:59:43Z</time>
      </trkpt>
      <trkpt lat="48.82732" lon="2.55816">
        <ele>91</ele>
        <time>2018-08-26T08:59:45Z</time>
      </trkpt>
      <trkpt lat="48.82734" lon="2.55811">
        <ele>90.8</ele>
        <time>2018-08-26T08:59:48Z</time>
      </trkpt>
      <trkpt lat="48.82747" lon="2.55786">
        <ele>89.4</ele>
        <time>2018-08-26T09:00:07Z</time>
      </trkpt>
      <trkpt lat="48.82749" lon="2.55781">
        <ele>89.2</ele>
        <time>2018-08-26T09:00:11Z</time>
      </trkpt>
      <trkpt lat="48.82756" lon="2.55778">
        <ele>89</ele>
        <time>2018-08-26T09:00:21Z</time>
      </trkpt>
      <trkpt lat="48.82764" lon="2.55789">
        <ele>89.2</ele>
        <time>2018-08-26T09:00:31Z</time>
      </trkpt>
      <trkpt lat="48.82772" lon="2.55791">
        <ele>89.1</ele>
        <time>2018-08-26T09:00:47Z</time>
      </trkpt>
      <trkpt lat="48.82771" lon="2.5579">
        <ele>89.1</ele>
        <time>2018-08-26T09:01:11Z</time>
      </trkpt>
      <trkpt lat="48.8277" lon="2.55788">
        <ele>89.1</ele>
        <time>2018-08-26T09:01:15Z</time>
      </trkpt>
      <trkpt lat="48.82763" lon="2.55784">
        <ele>89.1</ele>
        <time>2018-08-26T09:01:22Z</time>
      </trkpt>
      <trkpt lat="48.82754" lon="2.55777">
        <ele>89</ele>
        <time>2018-08-26T09:01:31Z</time>
      </trkpt>
      <trkpt lat="48.82761" lon="2.55753">
        <ele>88.7</ele>
        <time>2018-08-26T09:01:48Z</time>
      </trkpt>
      <trkpt lat="48.82766" lon="2.55746">
        <ele>88.3</ele>
        <time>2018-08-26T09:01:54Z</time>
      </trkpt>
      <trkpt lat="48.82774" lon="2.55735">
        <ele>87.6</ele>
        <time>2018-08-26T09:02:03Z</time>
      </trkpt>
      <trkpt lat="48.82786" lon="2.55715">
        <ele>87.3</ele>
        <time>2018-08-26T09:02:18Z</time>
      </trkpt>
      <trkpt lat="48.82787" lon="2.55712">
        <ele>87.3</ele>
        <time>2018-08-26T09:02:20Z</time>
      </trkpt>
      <trkpt lat="48.82791" lon="2.55704">
        <ele>87.5</ele>
        <time>2018-08-26T09:02:26Z</time>
      </trkpt>
      <trkpt lat="48.82805" lon="2.55681">
        <ele>88</ele>
        <time>2018-08-26T09:02:43Z</time>
      </trkpt>
      <trkpt lat="48.82807" lon="2.55678">
        <ele>88</ele>
        <time>2018-08-26T09:02:45Z</time>
      </trkpt>
      <trkpt lat="48.82807" lon="2.55665">
        <ele>88.1</ele>
        <time>2018-08-26T09:02:54Z</time>
      </trkpt>
      <trkpt lat="48.82805" lon="2.55676">
        <ele>88</ele>
        <time>2018-08-26T09:03:00Z</time>
      </trkpt>
      <trkpt lat="48.82801" lon="2.55683">
        <ele>87.8</ele>
        <time>2018-08-26T09:03:06Z</time>
      </trkpt>
      <trkpt lat="48.8281" lon="2.55692">
        <ele>88.1</ele>
        <time>2018-08-26T09:03:23Z</time>
      </trkpt>
      <trkpt lat="48.82811" lon="2.5569">
        <ele>88.2</ele>
        <time>2018-08-26T09:03:47Z</time>
      </trkpt>
      <trkpt lat="48.8279" lon="2.55686">
        <ele>87.4</ele>
        <time>2018-08-26T09:04:03Z</time>
      </trkpt>
      <trkpt lat="48.82785" lon="2.5568">
        <ele>87.3</ele>
        <time>2018-08-26T09:04:09Z</time>
      </trkpt>
      <trkpt lat="48.82777" lon="2.55663">
        <ele>87</ele>
        <time>2018-08-26T09:04:26Z</time>
      </trkpt>
      <trkpt lat="48.82775" lon="2.55669">
        <ele>87</ele>
        <time>2018-08-26T09:04:46Z</time>
      </trkpt>
      <trkpt lat="48.82774" lon="2.55668">
        <ele>87</ele>
        <time>2018-08-26T09:04:49Z</time>
      </trkpt>
      <trkpt lat="48.82772" lon="2.55663">
        <ele>87</ele>
        <time>2018-08-26T09:04:53Z</time>
      </trkpt>
      <trkpt lat="48.82761" lon="2.55638">
        <ele>86.4</ele>
        <time>2018-08-26T09:05:13Z</time>
      </trkpt>
      <trkpt lat="48.8275" lon="2.55624">
        <ele>86</ele>
        <time>2018-08-26T09:05:29Z</time>
      </trkpt>
      <trkpt lat="48.82745" lon="2.55616">
        <ele>86</ele>
        <time>2018-08-26T09:05:42Z</time>
      </trkpt>
      <trkpt lat="48.82735" lon="2.55597">
        <ele>86</ele>
        <time>2018-08-26T09:05:58Z</time>
      </trkpt>
      <trkpt lat="48.82724" lon="2.55577">
        <ele>86</ele>
        <time>2018-08-26T09:06:14Z</time>
      </trkpt>
      <trkpt lat="48.82711" lon="2.55562">
        <ele>86</ele>
        <time>2018-08-26T09:06:30Z</time>
      </trkpt>
      <trkpt lat="48.82709" lon="2.55561">
        <ele>86</ele>
        <time>2018-08-26T09:06:31Z</time>
      </trkpt>
      <trkpt lat="48.82688" lon="2.55558">
        <ele>86</ele>
        <time>2018-08-26T09:06:49Z</time>
      </trkpt>
      <trkpt lat="48.82669" lon="2.55559">
        <ele>86</ele>
        <time>2018-08-26T09:07:07Z</time>
      </trkpt>
      <trkpt lat="48.82666" lon="2.55558">
        <ele>86</ele>
        <time>2018-08-26T09:07:11Z</time>
      </trkpt>
      <trkpt lat="48.8266" lon="2.55558">
        <ele>86.2</ele>
        <time>2018-08-26T09:07:17Z</time>
      </trkpt>
      <trkpt lat="48.82648" lon="2.55548">
        <ele>86.4</ele>
        <time>2018-08-26T09:07:32Z</time>
      </trkpt>
      <trkpt lat="48.82644" lon="2.5554">
        <ele>86.2</ele>
        <time>2018-08-26T09:07:39Z</time>
      </trkpt>
      <trkpt lat="48.82631" lon="2.55517">
        <ele>85.7</ele>
        <time>2018-08-26T09:07:56Z</time>
      </trkpt>
      <trkpt lat="48.82623" lon="2.55496">
        <ele>85.5</ele>
        <time>2018-08-26T09:08:12Z</time>
      </trkpt>
      <trkpt lat="48.82613" lon="2.55478">
        <ele>85.2</ele>
        <time>2018-08-26T09:08:29Z</time>
      </trkpt>
      <trkpt lat="48.82599" lon="2.55456">
        <ele>84.7</ele>
        <time>2018-08-26T09:08:46Z</time>
      </trkpt>
      <trkpt lat="48.82588" lon="2.55439">
        <ele>84.7</ele>
        <time>2018-08-26T09:09:02Z</time>
      </trkpt>
      <trkpt lat="48.82575" lon="2.55418">
        <ele>84.1</ele>
        <time>2018-08-26T09:09:17Z</time>
      </trkpt>
      <trkpt lat="48.8256" lon="2.554">
        <ele>83.4</ele>
        <time>2018-08-26T09:09:35Z</time>
      </trkpt>
      <trkpt lat="48.82557" lon="2.5539">
        <ele>83</ele>
        <time>2018-08-26T09:09:43Z</time>
      </trkpt>
      <trkpt lat="48.82568" lon="2.55364">
        <ele>83</ele>
        <time>2018-08-26T09:10:02Z</time>
      </trkpt>
      <trkpt lat="48.82577" lon="2.55347">
        <ele>83</ele>
        <time>2018-08-26T09:10:18Z</time>
      </trkpt>
      <trkpt lat="48.82579" lon="2.55341">
        <ele>83</ele>
        <time>2018-08-26T09:10:38Z</time>
      </trkpt>
      <trkpt lat="48.82582" lon="2.55336">
        <ele>83</ele>
        <time>2018-08-26T09:10:52Z</time>
      </trkpt>
      <trkpt lat="48.82585" lon="2.55328">
        <ele>83.3</ele>
        <time>2018-08-26T09:11:08Z</time>
      </trkpt>
      <trkpt lat="48.82581" lon="2.55324">
        <ele>83.3</ele>
        <time>2018-08-26T09:11:20Z</time>
      </trkpt>
      <trkpt lat="48.82575" lon="2.55321">
        <ele>83.3</ele>
        <time>2018-08-26T09:11:27Z</time>
      </trkpt>
      <trkpt lat="48.82563" lon="2.55305">
        <ele>83.3</ele>
        <time>2018-08-26T09:11:43Z</time>
      </trkpt>
      <trkpt lat="48.82561" lon="2.55303">
        <ele>83.3</ele>
        <time>2018-08-26T09:11:45Z</time>
      </trkpt>
      <trkpt lat="48.82548" lon="2.55297">
        <ele>83.2</ele>
        <time>2018-08-26T09:12:02Z</time>
      </trkpt>
      <trkpt lat="48.82538" lon="2.553">
        <ele>83.1</ele>
        <time>2018-08-26T09:12:16Z</time>
      </trkpt>
      <trkpt lat="48.82536" lon="2.55302">
        <ele>83</ele>
        <time>2018-08-26T09:12:22Z</time>
      </trkpt>
      <trkpt lat="48.82533" lon="2.553">
        <ele>83</ele>
        <time>2018-08-26T09:12:25Z</time>
      </trkpt>
      <trkpt lat="48.82525" lon="2.55305">
        <ele>82.9</ele>
        <time>2018-08-26T09:12:37Z</time>
      </trkpt>
      <trkpt lat="48.82522" lon="2.5531">
        <ele>82.8</ele>
        <time>2018-08-26T09:12:41Z</time>
      </trkpt>
      <trkpt lat="48.82502" lon="2.55312">
        <ele>82.3</ele>
        <time>2018-08-26T09:12:59Z</time>
      </trkpt>
      <trkpt lat="48.82488" lon="2.55298">
        <ele>82</ele>
        <time>2018-08-26T09:13:15Z</time>
      </trkpt>
      <trkpt lat="48.8247" lon="2.55276">
        <ele>81.9</ele>
        <time>2018-08-26T09:13:36Z</time>
      </trkpt>
      <trkpt lat="48.82454" lon="2.55255">
        <ele>81.2</ele>
        <time>2018-08-26T09:13:54Z</time>
      </trkpt>
      <trkpt lat="48.82441" lon="2.55234">
        <ele>80.9</ele>
        <time>2018-08-26T09:14:10Z</time>
      </trkpt>
      <trkpt lat="48.82429" lon="2.55208">
        <ele>80.5</ele>
        <time>2018-08-26T09:14:29Z</time>
      </trkpt>
      <trkpt lat="48.82413" lon="2.55166">
        <ele>80</ele>
        <time>2018-08-26T09:14:56Z</time>
      </trkpt>
      <trkpt lat="48.82399" lon="2.55143">
        <ele>80</ele>
        <time>2018-08-26T09:15:13Z</time>
      </trkpt>
      <trkpt lat="48.82387" lon="2.55124">
        <ele>79.5</ele>
        <time>2018-08-26T09:15:28Z</time>
      </trkpt>
      <trkpt lat="48.82383" lon="2.55111">
        <ele>79</ele>
        <time>2018-08-26T09:15:39Z</time>
      </trkpt>
      <trkpt lat="48.82379" lon="2.551">
        <ele>79</ele>
        <time>2018-08-26T09:15:51Z</time>
      </trkpt>
      <trkpt lat="48.8237" lon="2.55076">
        <ele>79</ele>
        <time>2018-08-26T09:16:07Z</time>
      </trkpt>
      <trkpt lat="48.82355" lon="2.55056">
        <ele>79</ele>
        <time>2018-08-26T09:16:23Z</time>
      </trkpt>
      <trkpt lat="48.8234" lon="2.55025">
        <ele>78</ele>
        <time>2018-08-26T09:16:44Z</time>
      </trkpt>
      <trkpt lat="48.82327" lon="2.55003">
        <ele>78</ele>
        <time>2018-08-26T09:17:01Z</time>
      </trkpt>
      <trkpt lat="48.82315" lon="2.5498">
        <ele>78</ele>
        <time>2018-08-26T09:17:18Z</time>
      </trkpt>
      <trkpt lat="48.82302" lon="2.5496">
        <ele>78</ele>
        <time>2018-08-26T09:17:36Z</time>
      </trkpt>
      <trkpt lat="48.82303" lon="2.5496">
        <ele>78</ele>
        <time>2018-08-26T09:17:44Z</time>
      </trkpt>
      <trkpt lat="48.82306" lon="2.54962">
        <ele>78</ele>
        <time>2018-08-26T09:17:49Z</time>
      </trkpt>
      <trkpt lat="48.82312" lon="2.54957">
        <ele>78</ele>
        <time>2018-08-26T09:17:54Z</time>
      </trkpt>
      <trkpt lat="48.82316" lon="2.54941">
        <ele>78</ele>
        <time>2018-08-26T09:18:07Z</time>
      </trkpt>
      <trkpt lat="48.82318" lon="2.5492">
        <ele>78</ele>
        <time>2018-08-26T09:18:22Z</time>
      </trkpt>
      <trkpt lat="48.82327" lon="2.54911">
        <ele>78</ele>
        <time>2018-08-26T09:18:34Z</time>
      </trkpt>
      <trkpt lat="48.82342" lon="2.54913">
        <ele>78</ele>
        <time>2018-08-26T09:18:50Z</time>
      </trkpt>
      <trkpt lat="48.82344" lon="2.54911">
        <ele>77.9</ele>
        <time>2018-08-26T09:18:54Z</time>
      </trkpt>
      <trkpt lat="48.82362" lon="2.54908">
        <ele>77.7</ele>
        <time>2018-08-26T09:19:09Z</time>
      </trkpt>
      <trkpt lat="48.8238" lon="2.54899">
        <ele>77.4</ele>
        <time>2018-08-26T09:19:26Z</time>
      </trkpt>
      <trkpt lat="48.82396" lon="2.54895">
        <ele>77.7</ele>
        <time>2018-08-26T09:19:43Z</time>
      </trkpt>
      <trkpt lat="48.82413" lon="2.54893">
        <ele>78.7</ele>
        <time>2018-08-26T09:20:01Z</time>
      </trkpt>
      <trkpt lat="48.82425" lon="2.54894">
        <ele>79.3</ele>
        <time>2018-08-26T09:20:19Z</time>
      </trkpt>
      <trkpt lat="48.82444" lon="2.54889">
        <ele>80</ele>
        <time>2018-08-26T09:20:37Z</time>
      </trkpt>
      <trkpt lat="48.8246" lon="2.54867">
        <ele>81.5</ele>
        <time>2018-08-26T09:20:54Z</time>
      </trkpt>
      <trkpt lat="48.82454" lon="2.54834">
        <ele>80.7</ele>
        <time>2018-08-26T09:21:14Z</time>
      </trkpt>
      <trkpt lat="48.82448" lon="2.5481">
        <ele>80.3</ele>
        <time>2018-08-26T09:21:29Z</time>
      </trkpt>
      <trkpt lat="48.82446" lon="2.54801">
        <ele>80.1</ele>
        <time>2018-08-26T09:21:34Z</time>
      </trkpt>
      <trkpt lat="48.82438" lon="2.5477">
        <ele>79.6</ele>
        <time>2018-08-26T09:21:53Z</time>
      </trkpt>
      <trkpt lat="48.82431" lon="2.54742">
        <ele>78.9</ele>
        <time>2018-08-26T09:22:09Z</time>
      </trkpt>
      <trkpt lat="48.82424" lon="2.54712">
        <ele>77.7</ele>
        <time>2018-08-26T09:22:26Z</time>
      </trkpt>
      <trkpt lat="48.82417" lon="2.54679">
        <ele>77</ele>
        <time>2018-08-26T09:22:46Z</time>
      </trkpt>
      <trkpt lat="48.82418" lon="2.54661">
        <ele>77.5</ele>
        <time>2018-08-26T09:22:57Z</time>
      </trkpt>
      <trkpt lat="48.82428" lon="2.54647">
        <ele>78.8</ele>
        <time>2018-08-26T09:23:09Z</time>
      </trkpt>
      <trkpt lat="48.82441" lon="2.54634">
        <ele>79.7</ele>
        <time>2018-08-26T09:23:24Z</time>
      </trkpt>
      <trkpt lat="48.82443" lon="2.54617">
        <ele>79.3</ele>
        <time>2018-08-26T09:23:34Z</time>
      </trkpt>
      <trkpt lat="48.82437" lon="2.54595">
        <ele>79.4</ele>
        <time>2018-08-26T09:23:50Z</time>
      </trkpt>
      <trkpt lat="48.82434" lon="2.54589">
        <ele>79.6</ele>
        <time>2018-08-26T09:24:03Z</time>
      </trkpt>
      <trkpt lat="48.82433" lon="2.54589">
        <ele>79.7</ele>
        <time>2018-08-26T09:24:40Z</time>
      </trkpt>
      <trkpt lat="48.82436" lon="2.54586">
        <ele>79.4</ele>
        <time>2018-08-26T09:25:06Z</time>
      </trkpt>
    </trkseg>
  </trk>
  <trk>
    <name><![CDATA[20180826175923-u2d5c]]></name>
    <trkseg>
      <trkpt lat="48.84847" lon="2.55691">
        <ele>85.6</ele>
        <time>2018-08-26T09:41:11Z</time>
      </trkpt>
      <trkpt lat="48.84848" lon="2.55691">
        <ele>85.6</ele>
        <time>2018-08-26T09:41:12Z</time>
      </trkpt>
      <trkpt lat="48.84849" lon="2.55694">
        <ele>85.4</ele>
        <time>2018-08-26T09:41:28Z</time>
      </trkpt>
      <trkpt lat="48.84852" lon="2.55691">
        <ele>85.5</ele>
        <time>2018-08-26T09:41:49Z</time>
      </trkpt>
      <trkpt lat="48.84841" lon="2.55681">
        <ele>86.2</ele>
        <time>2018-08-26T09:42:02Z</time>
      </trkpt>
      <trkpt lat="48.84828" lon="2.55668">
        <ele>87.4</ele>
        <time>2018-08-26T09:42:18Z</time>
      </trkpt>
      <trkpt lat="48.84826" lon="2.55666">
        <ele>87.6</ele>
        <time>2018-08-26T09:42:20Z</time>
      </trkpt>
      <trkpt lat="48.84812" lon="2.5565">
        <ele>88.1</ele>
        <time>2018-08-26T09:42:34Z</time>
      </trkpt>
      <trkpt lat="48.8481" lon="2.55629">
        <ele>87.9</ele>
        <time>2018-08-26T09:42:49Z</time>
      </trkpt>
      <trkpt lat="48.84809" lon="2.55623">
        <ele>87.9</ele>
        <time>2018-08-26T09:42:53Z</time>
      </trkpt>
      <trkpt lat="48.84803" lon="2.55592">
        <ele>88.9</ele>
        <time>2018-08-26T09:43:10Z</time>
      </trkpt>
      <trkpt lat="48.848" lon="2.5557">
        <ele>89.5</ele>
        <time>2018-08-26T09:43:25Z</time>
      </trkpt>
      <trkpt lat="48.84796" lon="2.55547">
        <ele>89.9</ele>
        <time>2018-08-26T09:43:42Z</time>
      </trkpt>
      <trkpt lat="48.84797" lon="2.55519">
        <ele>90</ele>
        <time>2018-08-26T09:43:57Z</time>
      </trkpt>
      <trkpt lat="48.84796" lon="2.55515">
        <ele>89.9</ele>
        <time>2018-08-26T09:43:59Z</time>
      </trkpt>
      <trkpt lat="48.84794" lon="2.55503">
        <ele>89.5</ele>
        <time>2018-08-26T09:44:05Z</time>
      </trkpt>
      <trkpt lat="48.84788" lon="2.55468">
        <ele>89.9</ele>
        <time>2018-08-26T09:44:23Z</time>
      </trkpt>
      <trkpt lat="48.84788" lon="2.5544">
        <ele>89.6</ele>
        <time>2018-08-26T09:44:39Z</time>
      </trkpt>
      <trkpt lat="48.84786" lon="2.55408">
        <ele>89.2</ele>
        <time>2018-08-26T09:44:56Z</time>
      </trkpt>
      <trkpt lat="48.84786" lon="2.55381">
        <ele>88.7</ele>
        <time>2018-08-26T09:45:10Z</time>
      </trkpt>
      <trkpt lat="48.84787" lon="2.55354">
        <ele>88.7</ele>
        <time>2018-08-26T09:45:26Z</time>
      </trkpt>
      <trkpt lat="48.84786" lon="2.55352">
        <ele>88.7</ele>
        <time>2018-08-26T09:45:40Z</time>
      </trkpt>
      <trkpt lat="48.84791" lon="2.55337">
        <ele>88.5</ele>
        <time>2018-08-26T09:46:01Z</time>
      </trkpt>
      <trkpt lat="48.848" lon="2.55328">
        <ele>88</ele>
        <time>2018-08-26T09:46:21Z</time>
      </trkpt>
      <trkpt lat="48.84809" lon="2.55329">
        <ele>87.7</ele>
        <time>2018-08-26T09:46:42Z</time>
      </trkpt>
      <trkpt lat="48.84817" lon="2.55342">
        <ele>87.6</ele>
        <time>2018-08-26T09:47:05Z</time>
      </trkpt>
      <trkpt lat="48.84819" lon="2.55334">
        <ele>87.5</ele>
        <time>2018-08-26T09:47:24Z</time>
      </trkpt>
      <trkpt lat="48.84823" lon="2.55325">
        <ele>87.3</ele>
        <time>2018-08-26T09:47:44Z</time>
      </trkpt>
      <trkpt lat="48.84829" lon="2.55332">
        <ele>87.1</ele>
        <time>2018-08-26T09:48:07Z</time>
      </trkpt>
      <trkpt lat="48.84833" lon="2.55348">
        <ele>87</ele>
        <time>2018-08-26T09:48:34Z</time>
      </trkpt>
      <trkpt lat="48.84835" lon="2.55351">
        <ele>86.9</ele>
        <time>2018-08-26T09:48:58Z</time>
      </trkpt>
      <trkpt lat="48.8483" lon="2.5533">
        <ele>87.1</ele>
        <time>2018-08-26T09:49:18Z</time>
      </trkpt>
      <trkpt lat="48.84827" lon="2.55319">
        <ele>87.1</ele>
        <time>2018-08-26T09:49:38Z</time>
      </trkpt>
      <trkpt lat="48.84825" lon="2.55328">
        <ele>87.3</ele>
        <time>2018-08-26T09:50:00Z</time>
      </trkpt>
      <trkpt lat="48.84824" lon="2.55337">
        <ele>87.3</ele>
        <time>2018-08-26T09:50:21Z</time>
      </trkpt>
      <trkpt lat="48.84823" lon="2.55349">
        <ele>87.4</ele>
        <time>2018-08-26T09:50:44Z</time>
      </trkpt>
      <trkpt lat="48.84822" lon="2.5534">
        <ele>87.4</ele>
        <time>2018-08-26T09:51:10Z</time>
      </trkpt>
      <trkpt lat="48.84822" lon="2.55342">
        <ele>87.4</ele>
        <time>2018-08-26T09:51:36Z</time>
      </trkpt>
      <trkpt lat="48.84824" lon="2.55344">
        <ele>87.3</ele>
        <time>2018-08-26T09:52:05Z</time>
      </trkpt>
      <trkpt lat="48.8482" lon="2.55354">
        <ele>87.5</ele>
        <time>2018-08-26T09:52:25Z</time>
      </trkpt>
      <trkpt lat="48.84816" lon="2.55354">
        <ele>87.6</ele>
        <time>2018-08-26T09:52:45Z</time>
      </trkpt>
      <trkpt lat="48.8481" lon="2.55345">
        <ele>87.8</ele>
        <time>2018-08-26T09:53:06Z</time>
      </trkpt>
      <trkpt lat="48.84804" lon="2.55342">
        <ele>88.1</ele>
        <time>2018-08-26T09:53:29Z</time>
      </trkpt>
      <trkpt lat="48.84799" lon="2.55329">
        <ele>88.1</ele>
        <time>2018-08-26T09:53:46Z</time>
      </trkpt>
      <trkpt lat="48.84794" lon="2.55331">
        <ele>88.4</ele>
        <time>2018-08-26T09:54:08Z</time>
      </trkpt>
      <trkpt lat="48.84794" lon="2.55336">
        <ele>88.4</ele>
        <time>2018-08-26T09:54:30Z</time>
      </trkpt>
      <trkpt lat="48.84799" lon="2.55338">
        <ele>88.2</ele>
        <time>2018-08-26T09:54:52Z</time>
      </trkpt>
      <trkpt lat="48.84808" lon="2.55331">
        <ele>87.8</ele>
        <time>2018-08-26T09:55:10Z</time>
      </trkpt>
      <trkpt lat="48.84815" lon="2.55344">
        <ele>87.6</ele>
        <time>2018-08-26T09:55:31Z</time>
      </trkpt>
      <trkpt lat="48.84825" lon="2.55346">
        <ele>87.3</ele>
        <time>2018-08-26T09:55:51Z</time>
      </trkpt>
      <trkpt lat="48.84829" lon="2.55335">
        <ele>87.2</ele>
        <time>2018-08-26T09:56:15Z</time>
      </trkpt>
      <trkpt lat="48.84829" lon="2.55327">
        <ele>87.1</ele>
        <time>2018-08-26T09:56:44Z</time>
      </trkpt>
      <trkpt lat="48.84824" lon="2.55321">
        <ele>87.2</ele>
        <time>2018-08-26T09:57:15Z</time>
      </trkpt>
      <trkpt lat="48.84824" lon="2.55324">
        <ele>87.2</ele>
        <time>2018-08-26T09:57:45Z</time>
      </trkpt>
      <trkpt lat="48.84828" lon="2.5533">
        <ele>87.2</ele>
        <time>2018-08-26T09:58:18Z</time>
      </trkpt>
      <trkpt lat="48.84828" lon="2.55328">
        <ele>87.2</ele>
        <time>2018-08-26T09:58:47Z</time>
      </trkpt>
      <trkpt lat="48.84826" lon="2.55321">
        <ele>87.1</ele>
        <time>2018-08-26T09:59:14Z</time>
      </trkpt>
      <trkpt lat="48.84826" lon="2.55318">
        <ele>87.1</ele>
        <time>2018-08-26T09:59:37Z</time>
      </trkpt>
      <trkpt lat="48.84834" lon="2.55327">
        <ele>87</ele>
        <time>2018-08-26T10:00:00Z</time>
      </trkpt>
      <trkpt lat="48.84833" lon="2.55328">
        <ele>87</ele>
        <time>2018-08-26T10:00:25Z</time>
      </trkpt>
      <trkpt lat="48.84833" lon="2.55326">
        <ele>87</ele>
        <time>2018-08-26T10:00:47Z</time>
      </trkpt>
      <trkpt lat="48.84835" lon="2.55333">
        <ele>86.9</ele>
        <time>2018-08-26T10:01:14Z</time>
      </trkpt>
      <trkpt lat="48.84838" lon="2.55337">
        <ele>86.8</ele>
        <time>2018-08-26T10:01:38Z</time>
      </trkpt>
      <trkpt lat="48.84838" lon="2.55334">
        <ele>86.8</ele>
        <time>2018-08-26T10:02:06Z</time>
      </trkpt>
      <trkpt lat="48.84838" lon="2.55339">
        <ele>86.8</ele>
        <time>2018-08-26T10:02:38Z</time>
      </trkpt>
      <trkpt lat="48.84837" lon="2.55337">
        <ele>86.9</ele>
        <time>2018-08-26T10:03:08Z</time>
      </trkpt>
      <trkpt lat="48.84834" lon="2.55341">
        <ele>87</ele>
        <time>2018-08-26T10:03:31Z</time>
      </trkpt>
      <trkpt lat="48.84839" lon="2.55339">
        <ele>86.8</ele>
        <time>2018-08-26T10:04:06Z</time>
      </trkpt>
      <trkpt lat="48.84832" lon="2.55341">
        <ele>87</ele>
        <time>2018-08-26T10:04:32Z</time>
      </trkpt>
      <trkpt lat="48.84837" lon="2.55339">
        <ele>86.9</ele>
        <time>2018-08-26T10:04:56Z</time>
      </trkpt>
      <trkpt lat="48.84836" lon="2.55342">
        <ele>86.9</ele>
        <time>2018-08-26T10:05:21Z</time>
      </trkpt>
      <trkpt lat="48.84832" lon="2.55341">
        <ele>87</ele>
        <time>2018-08-26T10:05:53Z</time>
      </trkpt>
      <trkpt lat="48.84836" lon="2.55346">
        <ele>86.9</ele>
        <time>2018-08-26T10:06:24Z</time>
      </trkpt>
      <trkpt lat="48.84837" lon="2.55345">
        <ele>86.9</ele>
        <time>2018-08-26T10:06:48Z</time>
      </trkpt>
      <trkpt lat="48.84838" lon="2.55349">
        <ele>86.8</ele>
        <time>2018-08-26T10:07:16Z</time>
      </trkpt>
      <trkpt lat="48.84836" lon="2.55349">
        <ele>86.9</ele>
        <time>2018-08-26T10:07:43Z</time>
      </trkpt>
      <trkpt lat="48.84836" lon="2.55352">
        <ele>86.9</ele>
        <time>2018-08-26T10:08:06Z</time>
      </trkpt>
      <trkpt lat="48.84837" lon="2.55364">
        <ele>86.9</ele>
        <time>2018-08-26T10:08:22Z</time>
      </trkpt>
      <trkpt lat="48.84832" lon="2.55358">
        <ele>87</ele>
        <time>2018-08-26T10:08:37Z</time>
      </trkpt>
      <trkpt lat="48.84832" lon="2.55356">
        <ele>87.1</ele>
        <time>2018-08-26T10:08:59Z</time>
      </trkpt>
      <trkpt lat="48.84833" lon="2.55355">
        <ele>87</ele>
        <time>2018-08-26T10:09:08Z</time>
      </trkpt>
      <trkpt lat="48.84834" lon="2.55352">
        <ele>87</ele>
        <time>2018-08-26T10:09:32Z</time>
      </trkpt>
      <trkpt lat="48.84833" lon="2.55351">
        <ele>87</ele>
        <time>2018-08-26T10:10:00Z</time>
      </trkpt>
      <trkpt lat="48.84836" lon="2.55353">
        <ele>86.9</ele>
        <time>2018-08-26T10:10:15Z</time>
      </trkpt>
      <trkpt lat="48.84834" lon="2.55351">
        <ele>87</ele>
        <time>2018-08-26T10:10:51Z</time>
      </trkpt>
      <trkpt lat="48.84834" lon="2.55353">
        <ele>87</ele>
        <time>2018-08-26T10:11:29Z</time>
      </trkpt>
      <trkpt lat="48.84832" lon="2.55351">
        <ele>87</ele>
        <time>2018-08-26T10:11:56Z</time>
      </trkpt>
      <trkpt lat="48.84835" lon="2.55352">
        <ele>87</ele>
        <time>2018-08-26T10:12:17Z</time>
      </trkpt>
      <trkpt lat="48.84836" lon="2.5535">
        <ele>86.9</ele>
        <time>2018-08-26T10:12:43Z</time>
      </trkpt>
      <trkpt lat="48.84836" lon="2.55347">
        <ele>86.9</ele>
        <time>2018-08-26T10:13:15Z</time>
      </trkpt>
      <trkpt lat="48.84834" lon="2.5535">
        <ele>87</ele>
        <time>2018-08-26T10:13:43Z</time>
      </trkpt>
      <trkpt lat="48.84835" lon="2.55353">
        <ele>86.9</ele>
        <time>2018-08-26T10:14:12Z</time>
      </trkpt>
      <trkpt lat="48.84829" lon="2.5535">
        <ele>87.2</ele>
        <time>2018-08-26T10:14:42Z</time>
      </trkpt>
      <trkpt lat="48.84831" lon="2.5535">
        <ele>87.1</ele>
        <time>2018-08-26T10:15:12Z</time>
      </trkpt>
      <trkpt lat="48.84833" lon="2.55352">
        <ele>87</ele>
        <time>2018-08-26T10:15:41Z</time>
      </trkpt>
      <trkpt lat="48.84836" lon="2.55354">
        <ele>86.9</ele>
        <time>2018-08-26T10:16:13Z</time>
      </trkpt>
      <trkpt lat="48.84837" lon="2.5535">
        <ele>86.9</ele>
        <time>2018-08-26T10:16:43Z</time>
      </trkpt>
      <trkpt lat="48.84838" lon="2.55351">
        <ele>86.8</ele>
        <time>2018-08-26T10:17:14Z</time>
      </trkpt>
      <trkpt lat="48.84837" lon="2.5535">
        <ele>86.9</ele>
        <time>2018-08-26T10:17:43Z</time>
      </trkpt>
      <trkpt lat="48.84837" lon="2.55349">
        <ele>86.9</ele>
        <time>2018-08-26T10:18:14Z</time>
      </trkpt>
      <trkpt lat="48.84834" lon="2.55346">
        <ele>87</ele>
        <time>2018-08-26T10:18:44Z</time>
      </trkpt>
      <trkpt lat="48.84837" lon="2.55345">
        <ele>86.9</ele>
        <time>2018-08-26T10:19:13Z</time>
      </trkpt>
      <trkpt lat="48.84837" lon="2.55344">
        <ele>86.9</ele>
        <time>2018-08-26T10:19:42Z</time>
      </trkpt>
      <trkpt lat="48.84838" lon="2.55342">
        <ele>86.8</ele>
        <time>2018-08-26T10:20:04Z</time>
      </trkpt>
      <trkpt lat="48.84835" lon="2.55342">
        <ele>86.9</ele>
        <time>2018-08-26T10:20:39Z</time>
      </trkpt>
      <trkpt lat="48.84837" lon="2.55337">
        <ele>86.9</ele>
        <time>2018-08-26T10:21:10Z</time>
      </trkpt>
      <trkpt lat="48.84838" lon="2.55339">
        <ele>86.8</ele>
        <time>2018-08-26T10:21:32Z</time>
      </trkpt>
      <trkpt lat="48.84839" lon="2.55342">
        <ele>86.8</ele>
        <time>2018-08-26T10:21:53Z</time>
      </trkpt>
      <trkpt lat="48.84841" lon="2.55343">
        <ele>86.7</ele>
        <time>2018-08-26T10:22:24Z</time>
      </trkpt>
      <trkpt lat="48.84838" lon="2.55336">
        <ele>86.8</ele>
        <time>2018-08-26T10:22:58Z</time>
      </trkpt>
      <trkpt lat="48.84839" lon="2.55336">
        <ele>86.8</ele>
        <time>2018-08-26T10:23:23Z</time>
      </trkpt>
      <trkpt lat="48.84839" lon="2.5534">
        <ele>86.8</ele>
        <time>2018-08-26T10:23:52Z</time>
      </trkpt>
      <trkpt lat="48.84839" lon="2.5534">
        <ele>86.8</ele>
        <time>2018-08-26T10:23:58Z</time>
      </trkpt>
      <trkpt lat="48.84844" lon="2.55345">
        <ele>86.6</ele>
        <time>2018-08-26T10:24:28Z</time>
      </trkpt>
      <trkpt lat="48.84841" lon="2.55343">
        <ele>86.7</ele>
        <time>2018-08-26T10:24:55Z</time>
      </trkpt>
      <trkpt lat="48.84838" lon="2.55338">
        <ele>86.8</ele>
        <time>2018-08-26T10:25:25Z</time>
      </trkpt>
      <trkpt lat="48.84838" lon="2.55339">
        <ele>86.8</ele>
        <time>2018-08-26T10:25:54Z</time>
      </trkpt>
      <trkpt lat="48.84838" lon="2.55339">
        <ele>86.9</ele>
        <time>2018-08-26T10:26:24Z</time>
      </trkpt>
      <trkpt lat="48.8484" lon="2.55339">
        <ele>86.8</ele>
        <time>2018-08-26T10:26:50Z</time>
      </trkpt>
      <trkpt lat="48.84839" lon="2.55346">
        <ele>86.8</ele>
        <time>2018-08-26T10:27:17Z</time>
      </trkpt>
      <trkpt lat="48.84839" lon="2.55348">
        <ele>86.8</ele>
        <time>2018-08-26T10:27:47Z</time>
      </trkpt>
      <trkpt lat="48.84839" lon="2.5535">
        <ele>86.8</ele>
        <time>2018-08-26T10:28:17Z</time>
      </trkpt>
      <trkpt lat="48.84836" lon="2.55349">
        <ele>86.9</ele>
        <time>2018-08-26T10:28:45Z</time>
      </trkpt>
      <trkpt lat="48.84834" lon="2.55349">
        <ele>87</ele>
        <time>2018-08-26T10:29:11Z</time>
      </trkpt>
      <trkpt lat="48.84835" lon="2.55347">
        <ele>86.9</ele>
        <time>2018-08-26T10:29:47Z</time>
      </trkpt>
      <trkpt lat="48.84836" lon="2.55349">
        <ele>86.9</ele>
        <time>2018-08-26T10:30:08Z</time>
      </trkpt>
      <trkpt lat="48.84839" lon="2.55348">
        <ele>86.8</ele>
        <time>2018-08-26T10:30:35Z</time>
      </trkpt>
      <trkpt lat="48.8485" lon="2.55345">
        <ele>86.4</ele>
        <time>2018-08-26T10:31:04Z</time>
      </trkpt>
      <trkpt lat="48.84855" lon="2.55343">
        <ele>86.2</ele>
        <time>2018-08-26T10:31:34Z</time>
      </trkpt>
      <trkpt lat="48.84853" lon="2.55342">
        <ele>86.3</ele>
        <time>2018-08-26T10:31:59Z</time>
      </trkpt>
      <trkpt lat="48.8484" lon="2.55349">
        <ele>86.8</ele>
        <time>2018-08-26T10:32:17Z</time>
      </trkpt>
      <trkpt lat="48.84837" lon="2.55351">
        <ele>86.9</ele>
        <time>2018-08-26T10:32:38Z</time>
      </trkpt>
      <trkpt lat="48.84839" lon="2.55349">
        <ele>86.8</ele>
        <time>2018-08-26T10:32:49Z</time>
      </trkpt>
      <trkpt lat="48.8484" lon="2.55352">
        <ele>86.8</ele>
        <time>2018-08-26T10:33:05Z</time>
      </trkpt>
      <trkpt lat="48.8484" lon="2.55355">
        <ele>86.8</ele>
        <time>2018-08-26T10:33:20Z</time>
      </trkpt>
      <trkpt lat="48.84844" lon="2.55354">
        <ele>86.6</ele>
        <time>2018-08-26T10:33:32Z</time>
      </trkpt>
      <trkpt lat="48.84848" lon="2.55345">
        <ele>86.5</ele>
        <time>2018-08-26T10:33:44Z</time>
      </trkpt>
      <trkpt lat="48.84847" lon="2.55326">
        <ele>86.4</ele>
        <time>2018-08-26T10:33:58Z</time>
      </trkpt>
      <trkpt lat="48.84846" lon="2.55323">
        <ele>86.4</ele>
        <time>2018-08-26T10:34:00Z</time>
      </trkpt>
      <trkpt lat="48.84844" lon="2.55304">
        <ele>86.2</ele>
        <time>2018-08-26T10:34:14Z</time>
      </trkpt>
      <trkpt lat="48.84839" lon="2.55295">
        <ele>86.3</ele>
        <time>2018-08-26T10:34:25Z</time>
      </trkpt>
      <trkpt lat="48.84836" lon="2.55286">
        <ele>86.1</ele>
        <time>2018-08-26T10:34:38Z</time>
      </trkpt>
      <trkpt lat="48.84836" lon="2.55283">
        <ele>86.1</ele>
        <time>2018-08-26T10:34:42Z</time>
      </trkpt>
      <trkpt lat="48.8484" lon="2.55277">
        <ele>85.8</ele>
        <time>2018-08-26T10:34:47Z</time>
      </trkpt>
      <trkpt lat="48.84848" lon="2.55275">
        <ele>85.4</ele>
        <time>2018-08-26T10:34:57Z</time>
      </trkpt>
      <trkpt lat="48.84855" lon="2.55273">
        <ele>85.1</ele>
        <time>2018-08-26T10:35:05Z</time>
      </trkpt>
      <trkpt lat="48.84856" lon="2.55272">
        <ele>85</ele>
        <time>2018-08-26T10:35:07Z</time>
      </trkpt>
      <trkpt lat="48.84868" lon="2.55268">
        <ele>84.4</ele>
        <time>2018-08-26T10:35:20Z</time>
      </trkpt>
      <trkpt lat="48.84878" lon="2.55267">
        <ele>84</ele>
        <time>2018-08-26T10:35:32Z</time>
      </trkpt>
      <trkpt lat="48.84884" lon="2.55266">
        <ele>83.7</ele>
        <time>2018-08-26T10:35:44Z</time>
      </trkpt>
      <trkpt lat="48.84897" lon="2.55259">
        <ele>82.9</ele>
        <time>2018-08-26T10:35:55Z</time>
      </trkpt>
      <trkpt lat="48.84909" lon="2.55265">
        <ele>82.4</ele>
        <time>2018-08-26T10:36:08Z</time>
      </trkpt>
      <trkpt lat="48.84913" lon="2.55265">
        <ele>82.2</ele>
        <time>2018-08-26T10:36:11Z</time>
      </trkpt>
      <trkpt lat="48.84923" lon="2.55268">
        <ele>80.4</ele>
        <time>2018-08-26T10:36:25Z</time>
      </trkpt>
      <trkpt lat="48.84938" lon="2.55253">
        <ele>76.7</ele>
        <time>2018-08-26T10:36:39Z</time>
      </trkpt>
      <trkpt lat="48.84948" lon="2.5524">
        <ele>75</ele>
        <time>2018-08-26T10:36:54Z</time>
      </trkpt>
      <trkpt lat="48.84952" lon="2.55238">
        <ele>75</ele>
        <time>2018-08-26T10:37:12Z</time>
      </trkpt>
      <trkpt lat="48.84961" lon="2.55235">
        <ele>75</ele>
        <time>2018-08-26T10:37:28Z</time>
      </trkpt>
      <trkpt lat="48.84969" lon="2.55234">
        <ele>75</ele>
        <time>2018-08-26T10:37:41Z</time>
      </trkpt>
      <trkpt lat="48.84971" lon="2.55234">
        <ele>75</ele>
        <time>2018-08-26T10:37:44Z</time>
      </trkpt>
      <trkpt lat="48.84981" lon="2.55225">
        <ele>74.6</ele>
        <time>2018-08-26T10:37:57Z</time>
      </trkpt>
      <trkpt lat="48.84989" lon="2.55218">
        <ele>74</ele>
        <time>2018-08-26T10:38:09Z</time>
      </trkpt>
      <trkpt lat="48.84996" lon="2.55208">
        <ele>73</ele>
        <time>2018-08-26T10:38:22Z</time>
      </trkpt>
      <trkpt lat="48.84997" lon="2.55207">
        <ele>73</ele>
        <time>2018-08-26T10:38:23Z</time>
      </trkpt>
      <trkpt lat="48.85008" lon="2.55196">
        <ele>72.1</ele>
        <time>2018-08-26T10:38:39Z</time>
      </trkpt>
      <trkpt lat="48.85009" lon="2.55193">
        <ele>72</ele>
        <time>2018-08-26T10:38:45Z</time>
      </trkpt>
      <trkpt lat="48.85019" lon="2.55188">
        <ele>71.8</ele>
        <time>2018-08-26T10:38:57Z</time>
      </trkpt>
      <trkpt lat="48.8502" lon="2.55191">
        <ele>71.9</ele>
        <time>2018-08-26T10:39:06Z</time>
      </trkpt>
      <trkpt lat="48.8502" lon="2.55194">
        <ele>72</ele>
        <time>2018-08-26T10:39:16Z</time>
      </trkpt>
      <trkpt lat="48.85023" lon="2.55193">
        <ele>72</ele>
        <time>2018-08-26T10:39:20Z</time>
      </trkpt>
      <trkpt lat="48.85025" lon="2.55194">
        <ele>72</ele>
        <time>2018-08-26T10:39:22Z</time>
      </trkpt>
      <trkpt lat="48.85029" lon="2.55192">
        <ele>71.8</ele>
        <time>2018-08-26T10:39:29Z</time>
      </trkpt>
      <trkpt lat="48.85044" lon="2.55186">
        <ele>69.5</ele>
        <time>2018-08-26T10:39:45Z</time>
      </trkpt>
      <trkpt lat="48.8506" lon="2.55179">
        <ele>67.6</ele>
        <time>2018-08-26T10:40:01Z</time>
      </trkpt>
      <trkpt lat="48.85073" lon="2.55172">
        <ele>66.6</ele>
        <time>2018-08-26T10:40:14Z</time>
      </trkpt>
      <trkpt lat="48.85085" lon="2.55162">
        <ele>65.7</ele>
        <time>2018-08-26T10:40:26Z</time>
      </trkpt>
      <trkpt lat="48.85093" lon="2.55146">
        <ele>64.4</ele>
        <time>2018-08-26T10:40:40Z</time>
      </trkpt>
      <trkpt lat="48.85093" lon="2.55141">
        <ele>64.3</ele>
        <time>2018-08-26T10:40:48Z</time>
      </trkpt>
      <trkpt lat="48.85094" lon="2.55138">
        <ele>64.2</ele>
        <time>2018-08-26T10:40:50Z</time>
      </trkpt>
      <trkpt lat="48.8509" lon="2.55116">
        <ele>64.8</ele>
        <time>2018-08-26T10:41:06Z</time>
      </trkpt>
      <trkpt lat="48.85089" lon="2.55101">
        <ele>65</ele>
        <time>2018-08-26T10:41:23Z</time>
      </trkpt>
      <trkpt lat="48.85089" lon="2.55077">
        <ele>64.7</ele>
        <time>2018-08-26T10:41:39Z</time>
      </trkpt>
      <trkpt lat="48.85089" lon="2.55077">
        <ele>64.8</ele>
        <time>2018-08-26T10:41:43Z</time>
      </trkpt>
      <trkpt lat="48.85087" lon="2.55055">
        <ele>64.5</ele>
        <time>2018-08-26T10:41:57Z</time>
      </trkpt>
      <trkpt lat="48.85085" lon="2.55042">
        <ele>64.7</ele>
        <time>2018-08-26T10:42:06Z</time>
      </trkpt>
      <trkpt lat="48.85083" lon="2.55017">
        <ele>65</ele>
        <time>2018-08-26T10:42:20Z</time>
      </trkpt>
      <trkpt lat="48.85083" lon="2.55009">
        <ele>65</ele>
        <time>2018-08-26T10:42:25Z</time>
      </trkpt>
      <trkpt lat="48.85083" lon="2.54986">
        <ele>64.5</ele>
        <time>2018-08-26T10:42:41Z</time>
      </trkpt>
      <trkpt lat="48.85084" lon="2.54979">
        <ele>64.2</ele>
        <time>2018-08-26T10:42:55Z</time>
      </trkpt>
      <trkpt lat="48.85082" lon="2.54967">
        <ele>64.2</ele>
        <time>2018-08-26T10:43:08Z</time>
      </trkpt>
      <trkpt lat="48.85082" lon="2.54958">
        <ele>64.2</ele>
        <time>2018-08-26T10:43:21Z</time>
      </trkpt>
      <trkpt lat="48.85079" lon="2.54936">
        <ele>64</ele>
        <time>2018-08-26T10:43:35Z</time>
      </trkpt>
      <trkpt lat="48.8508" lon="2.54912">
        <ele>63.2</ele>
        <time>2018-08-26T10:43:49Z</time>
      </trkpt>
      <trkpt lat="48.85085" lon="2.54905">
        <ele>62.4</ele>
        <time>2018-08-26T10:43:55Z</time>
      </trkpt>
      <trkpt lat="48.85085" lon="2.54902">
        <ele>62.2</ele>
        <time>2018-08-26T10:43:57Z</time>
      </trkpt>
      <trkpt lat="48.85094" lon="2.54888">
        <ele>60.4</ele>
        <time>2018-08-26T10:44:11Z</time>
      </trkpt>
      <trkpt lat="48.85095" lon="2.54884">
        <ele>60.2</ele>
        <time>2018-08-26T10:44:26Z</time>
      </trkpt>
      <trkpt lat="48.85098" lon="2.54884">
        <ele>59.8</ele>
        <time>2018-08-26T10:44:41Z</time>
      </trkpt>
      <trkpt lat="48.85098" lon="2.54885">
        <ele>59.8</ele>
        <time>2018-08-26T10:45:05Z</time>
      </trkpt>
      <trkpt lat="48.85098" lon="2.5489">
        <ele>60</ele>
        <time>2018-08-26T10:45:26Z</time>
      </trkpt>
      <trkpt lat="48.85109" lon="2.54906">
        <ele>59.4</ele>
        <time>2018-08-26T10:45:43Z</time>
      </trkpt>
      <trkpt lat="48.8511" lon="2.54906">
        <ele>59.3</ele>
        <time>2018-08-26T10:45:50Z</time>
      </trkpt>
      <trkpt lat="48.85112" lon="2.5491">
        <ele>59.4</ele>
        <time>2018-08-26T10:45:53Z</time>
      </trkpt>
      <trkpt lat="48.85123" lon="2.54929">
        <ele>58.7</ele>
        <time>2018-08-26T10:46:08Z</time>
      </trkpt>
      <trkpt lat="48.85135" lon="2.54954">
        <ele>58.3</ele>
        <time>2018-08-26T10:46:24Z</time>
      </trkpt>
      <trkpt lat="48.85136" lon="2.54958">
        <ele>58.3</ele>
        <time>2018-08-26T10:46:27Z</time>
      </trkpt>
      <trkpt lat="48.85144" lon="2.54983">
        <ele>57.1</ele>
        <time>2018-08-26T10:46:43Z</time>
      </trkpt>
      <trkpt lat="48.85145" lon="2.54988">
        <ele>56.8</ele>
        <time>2018-08-26T10:46:46Z</time>
      </trkpt>
      <trkpt lat="48.85148" lon="2.55013">
        <ele>56.3</ele>
        <time>2018-08-26T10:47:03Z</time>
      </trkpt>
      <trkpt lat="48.85149" lon="2.55021">
        <ele>56.3</ele>
        <time>2018-08-26T10:47:15Z</time>
      </trkpt>
      <trkpt lat="48.8515" lon="2.55035">
        <ele>56.1</ele>
        <time>2018-08-26T10:47:26Z</time>
      </trkpt>
      <trkpt lat="48.85155" lon="2.55053">
        <ele>55.4</ele>
        <time>2018-08-26T10:47:36Z</time>
      </trkpt>
      <trkpt lat="48.85154" lon="2.55056">
        <ele>55.3</ele>
        <time>2018-08-26T10:47:38Z</time>
      </trkpt>
      <trkpt lat="48.85156" lon="2.55082">
        <ele>55.1</ele>
        <time>2018-08-26T10:47:54Z</time>
      </trkpt>
      <trkpt lat="48.85157" lon="2.55084">
        <ele>55</ele>
        <time>2018-08-26T10:47:57Z</time>
      </trkpt>
      <trkpt lat="48.8516" lon="2.55084">
        <ele>54.7</ele>
        <time>2018-08-26T10:48:03Z</time>
      </trkpt>
      <trkpt lat="48.85172" lon="2.55081">
        <ele>53.3</ele>
        <time>2018-08-26T10:48:17Z</time>
      </trkpt>
      <trkpt lat="48.85185" lon="2.55078">
        <ele>51.6</ele>
        <time>2018-08-26T10:48:32Z</time>
      </trkpt>
      <trkpt lat="48.85199" lon="2.55072">
        <ele>50.3</ele>
        <time>2018-08-26T10:48:46Z</time>
      </trkpt>
      <trkpt lat="48.85211" lon="2.55068">
        <ele>49</ele>
        <time>2018-08-26T10:48:59Z</time>
      </trkpt>
      <trkpt lat="48.85211" lon="2.55068">
        <ele>48.9</ele>
        <time>2018-08-26T10:49:00Z</time>
      </trkpt>
      <trkpt lat="48.85218" lon="2.55068">
        <ele>48.1</ele>
        <time>2018-08-26T10:49:15Z</time>
      </trkpt>
      <trkpt lat="48.85218" lon="2.55067">
        <ele>48.2</ele>
        <time>2018-08-26T10:49:31Z</time>
      </trkpt>
      <trkpt lat="48.85217" lon="2.55062">
        <ele>48.5</ele>
        <time>2018-08-26T10:49:37Z</time>
      </trkpt>
      <trkpt lat="48.85217" lon="2.55047">
        <ele>49</ele>
        <time>2018-08-26T10:49:51Z</time>
      </trkpt>
      <trkpt lat="48.85217" lon="2.55048">
        <ele>49</ele>
        <time>2018-08-26T10:50:05Z</time>
      </trkpt>
      <trkpt lat="48.85217" lon="2.55048">
        <ele>48.9</ele>
        <time>2018-08-26T10:50:10Z</time>
      </trkpt>
      <trkpt lat="48.85219" lon="2.55054">
        <ele>48.5</ele>
        <time>2018-08-26T10:50:15Z</time>
      </trkpt>
      <trkpt lat="48.85218" lon="2.5505">
        <ele>48.8</ele>
        <time>2018-08-26T10:50:18Z</time>
      </trkpt>
      <trkpt lat="48.85218" lon="2.55067">
        <ele>48.1</ele>
        <time>2018-08-26T10:50:32Z</time>
      </trkpt>
      <trkpt lat="48.85219" lon="2.55069">
        <ele>47.9</ele>
        <time>2018-08-26T10:50:49Z</time>
      </trkpt>
      <trkpt lat="48.85219" lon="2.55068">
        <ele>48</ele>
        <time>2018-08-26T10:51:07Z</time>
      </trkpt>
      <trkpt lat="48.85216" lon="2.55056">
        <ele>48.8</ele>
        <time>2018-08-26T10:51:22Z</time>
      </trkpt>
      <trkpt lat="48.85216" lon="2.55046">
        <ele>49.2</ele>
        <time>2018-08-26T10:51:31Z</time>
      </trkpt>
      <trkpt lat="48.85217" lon="2.55038">
        <ele>49.3</ele>
        <time>2018-08-26T10:51:36Z</time>
      </trkpt>
      <trkpt lat="48.85216" lon="2.55025">
        <ele>49.7</ele>
        <time>2018-08-26T10:51:47Z</time>
      </trkpt>
      <trkpt lat="48.85215" lon="2.55011">
        <ele>50.2</ele>
        <time>2018-08-26T10:52:02Z</time>
      </trkpt>
      <trkpt lat="48.85215" lon="2.54998">
        <ele>50.5</ele>
        <time>2018-08-26T10:52:15Z</time>
      </trkpt>
      <trkpt lat="48.85214" lon="2.54984">
        <ele>50.4</ele>
        <time>2018-08-26T10:52:29Z</time>
      </trkpt>
      <trkpt lat="48.85216" lon="2.54972">
        <ele>50.2</ele>
        <time>2018-08-26T10:52:43Z</time>
      </trkpt>
      <trkpt lat="48.85225" lon="2.5496">
        <ele>49.4</ele>
        <time>2018-08-26T10:52:56Z</time>
      </trkpt>
      <trkpt lat="48.85219" lon="2.54959">
        <ele>50.1</ele>
        <time>2018-08-26T10:53:07Z</time>
      </trkpt>
      <trkpt lat="48.85216" lon="2.54959">
        <ele>50.2</ele>
        <time>2018-08-26T10:53:21Z</time>
      </trkpt>
      <trkpt lat="48.85211" lon="2.54959">
        <ele>50.4</ele>
        <time>2018-08-26T10:53:34Z</time>
      </trkpt>
      <trkpt lat="48.85205" lon="2.54966">
        <ele>50.6</ele>
        <time>2018-08-26T10:53:46Z</time>
      </trkpt>
      <trkpt lat="48.852" lon="2.54968">
        <ele>50.8</ele>
        <time>2018-08-26T10:54:01Z</time>
      </trkpt>
      <trkpt lat="48.85199" lon="2.54967">
        <ele>50.8</ele>
        <time>2018-08-26T10:54:13Z</time>
      </trkpt>
      <trkpt lat="48.85198" lon="2.54968">
        <ele>50.9</ele>
        <time>2018-08-26T10:54:26Z</time>
      </trkpt>
      <trkpt lat="48.85194" lon="2.54971">
        <ele>51</ele>
        <time>2018-08-26T10:54:56Z</time>
      </trkpt>
      <trkpt lat="48.85194" lon="2.54969">
        <ele>51</ele>
        <time>2018-08-26T10:55:09Z</time>
      </trkpt>
      <trkpt lat="48.85193" lon="2.54961">
        <ele>51.1</ele>
        <time>2018-08-26T11:23:34Z</time>
      </trkpt>
      <trkpt lat="48.85195" lon="2.54966">
        <ele>51</ele>
        <time>2018-08-26T11:24:00Z</time>
      </trkpt>
      <trkpt lat="48.85199" lon="2.54967">
        <ele>50.8</ele>
        <time>2018-08-26T11:24:29Z</time>
      </trkpt>
      <trkpt lat="48.85205" lon="2.54976">
        <ele>50.7</ele>
        <time>2018-08-26T11:24:46Z</time>
      </trkpt>
      <trkpt lat="48.85212" lon="2.54991">
        <ele>50.6</ele>
        <time>2018-08-26T11:25:01Z</time>
      </trkpt>
      <trkpt lat="48.85214" lon="2.54996">
        <ele>50.6</ele>
        <time>2018-08-26T11:25:20Z</time>
      </trkpt>
      <trkpt lat="48.8522" lon="2.54985">
        <ele>50.1</ele>
        <time>2018-08-26T11:25:34Z</time>
      </trkpt>
      <trkpt lat="48.85225" lon="2.54968">
        <ele>49.5</ele>
        <time>2018-08-26T11:25:47Z</time>
      </trkpt>
      <trkpt lat="48.85227" lon="2.54965">
        <ele>49.2</ele>
        <time>2018-08-26T11:25:59Z</time>
      </trkpt>
      <trkpt lat="48.85228" lon="2.54966">
        <ele>48.9</ele>
        <time>2018-08-26T11:26:12Z</time>
      </trkpt>
      <trkpt lat="48.85231" lon="2.54961">
        <ele>48.4</ele>
        <time>2018-08-26T11:26:24Z</time>
      </trkpt>
      <trkpt lat="48.85227" lon="2.54958">
        <ele>49.2</ele>
        <time>2018-08-26T11:26:37Z</time>
      </trkpt>
      <trkpt lat="48.85235" lon="2.54959">
        <ele>47.7</ele>
        <time>2018-08-26T11:26:52Z</time>
      </trkpt>
      <trkpt lat="48.85239" lon="2.54958">
        <ele>47</ele>
        <time>2018-08-26T11:27:01Z</time>
      </trkpt>
      <trkpt lat="48.8525" lon="2.54955">
        <ele>45</ele>
        <time>2018-08-26T11:27:18Z</time>
      </trkpt>
      <trkpt lat="48.85256" lon="2.5497">
        <ele>44.2</ele>
        <time>2018-08-26T11:27:32Z</time>
      </trkpt>
      <trkpt lat="48.85255" lon="2.54976">
        <ele>44.1</ele>
        <time>2018-08-26T11:27:36Z</time>
      </trkpt>
      <trkpt lat="48.85262" lon="2.55004">
        <ele>42.7</ele>
        <time>2018-08-26T11:27:55Z</time>
      </trkpt>
      <trkpt lat="48.85263" lon="2.55029">
        <ele>42.2</ele>
        <time>2018-08-26T11:28:12Z</time>
      </trkpt>
      <trkpt lat="48.85267" lon="2.55056">
        <ele>42.2</ele>
        <time>2018-08-26T11:28:29Z</time>
      </trkpt>
      <trkpt lat="48.85276" lon="2.55056">
        <ele>41.2</ele>
        <time>2018-08-26T11:28:39Z</time>
      </trkpt>
      <trkpt lat="48.85286" lon="2.55053">
        <ele>40.6</ele>
        <time>2018-08-26T11:28:57Z</time>
      </trkpt>
      <trkpt lat="48.85293" lon="2.55049">
        <ele>40.2</ele>
        <time>2018-08-26T11:29:12Z</time>
      </trkpt>
      <trkpt lat="48.85305" lon="2.55048">
        <ele>39.8</ele>
        <time>2018-08-26T11:29:26Z</time>
      </trkpt>
      <trkpt lat="48.85319" lon="2.55042">
        <ele>39.3</ele>
        <time>2018-08-26T11:29:43Z</time>
      </trkpt>
      <trkpt lat="48.85336" lon="2.55037">
        <ele>38.6</ele>
        <time>2018-08-26T11:29:58Z</time>
      </trkpt>
      <trkpt lat="48.85352" lon="2.55034">
        <ele>38.1</ele>
        <time>2018-08-26T11:30:13Z</time>
      </trkpt>
      <trkpt lat="48.85371" lon="2.55028">
        <ele>38</ele>
        <time>2018-08-26T11:30:30Z</time>
      </trkpt>
      <trkpt lat="48.85372" lon="2.55031">
        <ele>38</ele>
        <time>2018-08-26T11:30:43Z</time>
      </trkpt>
      <trkpt lat="48.85375" lon="2.55033">
        <ele>38</ele>
        <time>2018-08-26T11:31:01Z</time>
      </trkpt>
      <trkpt lat="48.85377" lon="2.55032">
        <ele>38</ele>
        <time>2018-08-26T11:31:16Z</time>
      </trkpt>
      <trkpt lat="48.85376" lon="2.55033">
        <ele>38</ele>
        <time>2018-08-26T11:31:38Z</time>
      </trkpt>
      <trkpt lat="48.85377" lon="2.55035">
        <ele>38</ele>
        <time>2018-08-26T11:31:57Z</time>
      </trkpt>
      <trkpt lat="48.85385" lon="2.55031">
        <ele>38</ele>
        <time>2018-08-26T11:32:13Z</time>
      </trkpt>
      <trkpt lat="48.85394" lon="2.55027">
        <ele>38</ele>
        <time>2018-08-26T11:32:21Z</time>
      </trkpt>
      <trkpt lat="48.85407" lon="2.55021">
        <ele>37.9</ele>
        <time>2018-08-26T11:32:34Z</time>
      </trkpt>
      <trkpt lat="48.8542" lon="2.55025">
        <ele>37.7</ele>
        <time>2018-08-26T11:32:49Z</time>
      </trkpt>
      <trkpt lat="48.85425" lon="2.55031">
        <ele>37.4</ele>
        <time>2018-08-26T11:33:05Z</time>
      </trkpt>
      <trkpt lat="48.85422" lon="2.55041">
        <ele>37.6</ele>
        <time>2018-08-26T11:33:14Z</time>
      </trkpt>
      <trkpt lat="48.85423" lon="2.55069">
        <ele>37.5</ele>
        <time>2018-08-26T11:33:31Z</time>
      </trkpt>
      <trkpt lat="48.85424" lon="2.55092">
        <ele>37.5</ele>
        <time>2018-08-26T11:33:47Z</time>
      </trkpt>
      <trkpt lat="48.85425" lon="2.55109">
        <ele>37.4</ele>
        <time>2018-08-26T11:33:58Z</time>
      </trkpt>
      <trkpt lat="48.85426" lon="2.55127">
        <ele>37.3</ele>
        <time>2018-08-26T11:34:10Z</time>
      </trkpt>
      <trkpt lat="48.85427" lon="2.55141">
        <ele>37.3</ele>
        <time>2018-08-26T11:34:19Z</time>
      </trkpt>
      <trkpt lat="48.85425" lon="2.55153">
        <ele>37.4</ele>
        <time>2018-08-26T11:34:26Z</time>
      </trkpt>
      <trkpt lat="48.85425" lon="2.55189">
        <ele>37.4</ele>
        <time>2018-08-26T11:34:46Z</time>
      </trkpt>
      <trkpt lat="48.85424" lon="2.55195">
        <ele>37.5</ele>
        <time>2018-08-26T11:34:50Z</time>
      </trkpt>
      <trkpt lat="48.85424" lon="2.5522">
        <ele>37.4</ele>
        <time>2018-08-26T11:35:05Z</time>
      </trkpt>
      <trkpt lat="48.85423" lon="2.55245">
        <ele>37.5</ele>
        <time>2018-08-26T11:35:20Z</time>
      </trkpt>
      <trkpt lat="48.85421" lon="2.55267">
        <ele>37.2</ele>
        <time>2018-08-26T11:35:32Z</time>
      </trkpt>
      <trkpt lat="48.85419" lon="2.5527">
        <ele>37.2</ele>
        <time>2018-08-26T11:35:35Z</time>
      </trkpt>
      <trkpt lat="48.85415" lon="2.55272">
        <ele>37.3</ele>
        <time>2018-08-26T11:35:39Z</time>
      </trkpt>
      <trkpt lat="48.85392" lon="2.55274">
        <ele>37.9</ele>
        <time>2018-08-26T11:35:59Z</time>
      </trkpt>
      <trkpt lat="48.85379" lon="2.55278">
        <ele>38</ele>
        <time>2018-08-26T11:36:12Z</time>
      </trkpt>
      <trkpt lat="48.85357" lon="2.55279">
        <ele>38.1</ele>
        <time>2018-08-26T11:36:31Z</time>
      </trkpt>
      <trkpt lat="48.8535" lon="2.55285">
        <ele>38.3</ele>
        <time>2018-08-26T11:36:46Z</time>
      </trkpt>
      <trkpt lat="48.85342" lon="2.55284">
        <ele>38.5</ele>
        <time>2018-08-26T11:36:59Z</time>
      </trkpt>
      <trkpt lat="48.85329" lon="2.55286">
        <ele>38.7</ele>
        <time>2018-08-26T11:37:13Z</time>
      </trkpt>
      <trkpt lat="48.85311" lon="2.55288">
        <ele>38.6</ele>
        <time>2018-08-26T11:37:30Z</time>
      </trkpt>
      <trkpt lat="48.85302" lon="2.55288">
        <ele>38.8</ele>
        <time>2018-08-26T11:37:39Z</time>
      </trkpt>
      <trkpt lat="48.85284" lon="2.55281">
        <ele>39.7</ele>
        <time>2018-08-26T11:37:55Z</time>
      </trkpt>
      <trkpt lat="48.85271" lon="2.5526">
        <ele>40.5</ele>
        <time>2018-08-26T11:38:12Z</time>
      </trkpt>
      <trkpt lat="48.85257" lon="2.55239">
        <ele>41.4</ele>
        <time>2018-08-26T11:38:29Z</time>
      </trkpt>
      <trkpt lat="48.85253" lon="2.55234">
        <ele>41.7</ele>
        <time>2018-08-26T11:38:34Z</time>
      </trkpt>
      <trkpt lat="48.85247" lon="2.5523">
        <ele>42.3</ele>
        <time>2018-08-26T11:38:45Z</time>
      </trkpt>
      <trkpt lat="48.85243" lon="2.55224">
        <ele>42.8</ele>
        <time>2018-08-26T11:38:51Z</time>
      </trkpt>
      <trkpt lat="48.85238" lon="2.55219">
        <ele>43.3</ele>
        <time>2018-08-26T11:38:56Z</time>
      </trkpt>
      <trkpt lat="48.85231" lon="2.55197">
        <ele>44.1</ele>
        <time>2018-08-26T11:39:11Z</time>
      </trkpt>
      <trkpt lat="48.8523" lon="2.55182">
        <ele>44.4</ele>
        <time>2018-08-26T11:39:31Z</time>
      </trkpt>
      <trkpt lat="48.85238" lon="2.55163">
        <ele>44.4</ele>
        <time>2018-08-26T11:39:45Z</time>
      </trkpt>
      <trkpt lat="48.8525" lon="2.55137">
        <ele>43</ele>
        <time>2018-08-26T11:40:04Z</time>
      </trkpt>
      <trkpt lat="48.85254" lon="2.55128">
        <ele>42.6</ele>
        <time>2018-08-26T11:40:12Z</time>
      </trkpt>
      <trkpt lat="48.85263" lon="2.55104">
        <ele>41.8</ele>
        <time>2018-08-26T11:40:30Z</time>
      </trkpt>
      <trkpt lat="48.85267" lon="2.55078">
        <ele>41.8</ele>
        <time>2018-08-26T11:40:47Z</time>
      </trkpt>
      <trkpt lat="48.85263" lon="2.55059">
        <ele>42.6</ele>
        <time>2018-08-26T11:41:03Z</time>
      </trkpt>
      <trkpt lat="48.85248" lon="2.55061">
        <ele>44.1</ele>
        <time>2018-08-26T11:41:20Z</time>
      </trkpt>
      <trkpt lat="48.8523" lon="2.55066">
        <ele>46.5</ele>
        <time>2018-08-26T11:41:39Z</time>
      </trkpt>
      <trkpt lat="48.85227" lon="2.55067">
        <ele>46.9</ele>
        <time>2018-08-26T11:41:42Z</time>
      </trkpt>
      <trkpt lat="48.85211" lon="2.55071">
        <ele>48.9</ele>
        <time>2018-08-26T11:41:59Z</time>
      </trkpt>
      <trkpt lat="48.85196" lon="2.55074">
        <ele>50.5</ele>
        <time>2018-08-26T11:42:14Z</time>
      </trkpt>
      <trkpt lat="48.85179" lon="2.5508">
        <ele>52.3</ele>
        <time>2018-08-26T11:42:31Z</time>
      </trkpt>
      <trkpt lat="48.85164" lon="2.55085">
        <ele>54.3</ele>
        <time>2018-08-26T11:42:47Z</time>
      </trkpt>
      <trkpt lat="48.85146" lon="2.55092">
        <ele>56.3</ele>
        <time>2018-08-26T11:43:05Z</time>
      </trkpt>
      <trkpt lat="48.8515" lon="2.55084">
        <ele>55.8</ele>
        <time>2018-08-26T11:43:23Z</time>
      </trkpt>
      <trkpt lat="48.8515" lon="2.55082">
        <ele>55.8</ele>
        <time>2018-08-26T11:43:24Z</time>
      </trkpt>
      <trkpt lat="48.8515" lon="2.55079">
        <ele>55.8</ele>
        <time>2018-08-26T11:43:26Z</time>
      </trkpt>
      <trkpt lat="48.85151" lon="2.55075">
        <ele>55.7</ele>
        <time>2018-08-26T11:43:28Z</time>
      </trkpt>
      <trkpt lat="48.85149" lon="2.55054">
        <ele>55.9</ele>
        <time>2018-08-26T11:43:40Z</time>
      </trkpt>
      <trkpt lat="48.85151" lon="2.55041">
        <ele>56</ele>
        <time>2018-08-26T11:43:47Z</time>
      </trkpt>
      <trkpt lat="48.8515" lon="2.55013">
        <ele>56.2</ele>
        <time>2018-08-26T11:44:03Z</time>
      </trkpt>
      <trkpt lat="48.85145" lon="2.54983">
        <ele>56.9</ele>
        <time>2018-08-26T11:44:21Z</time>
      </trkpt>
      <trkpt lat="48.85137" lon="2.54951">
        <ele>58.2</ele>
        <time>2018-08-26T11:44:40Z</time>
      </trkpt>
      <trkpt lat="48.85125" lon="2.54926">
        <ele>58.3</ele>
        <time>2018-08-26T11:44:57Z</time>
      </trkpt>
      <trkpt lat="48.85111" lon="2.54907">
        <ele>59.3</ele>
        <time>2018-08-26T11:45:14Z</time>
      </trkpt>
      <trkpt lat="48.85094" lon="2.54889">
        <ele>60.4</ele>
        <time>2018-08-26T11:45:31Z</time>
      </trkpt>
      <trkpt lat="48.85093" lon="2.54887">
        <ele>60.6</ele>
        <time>2018-08-26T11:45:33Z</time>
      </trkpt>
      <trkpt lat="48.85091" lon="2.54881">
        <ele>60.7</ele>
        <time>2018-08-26T11:45:37Z</time>
      </trkpt>
      <trkpt lat="48.85095" lon="2.54876">
        <ele>60</ele>
        <time>2018-08-26T11:45:44Z</time>
      </trkpt>
      <trkpt lat="48.85097" lon="2.54877">
        <ele>59.9</ele>
        <time>2018-08-26T11:45:46Z</time>
      </trkpt>
      <trkpt lat="48.85108" lon="2.54876">
        <ele>58.4</ele>
        <time>2018-08-26T11:46:04Z</time>
      </trkpt>
      <trkpt lat="48.85109" lon="2.54862">
        <ele>58.2</ele>
        <time>2018-08-26T11:46:17Z</time>
      </trkpt>
      <trkpt lat="48.85109" lon="2.54858">
        <ele>58.4</ele>
        <time>2018-08-26T11:46:20Z</time>
      </trkpt>
      <trkpt lat="48.85109" lon="2.5484">
        <ele>58.9</ele>
        <time>2018-08-26T11:46:34Z</time>
      </trkpt>
      <trkpt lat="48.85108" lon="2.54824">
        <ele>59.3</ele>
        <time>2018-08-26T11:46:46Z</time>
      </trkpt>
      <trkpt lat="48.85108" lon="2.54802">
        <ele>59.5</ele>
        <time>2018-08-26T11:47:03Z</time>
      </trkpt>
      <trkpt lat="48.85108" lon="2.54801">
        <ele>59.5</ele>
        <time>2018-08-26T11:47:04Z</time>
      </trkpt>
      <trkpt lat="48.85107" lon="2.54779">
        <ele>60.3</ele>
        <time>2018-08-26T11:47:20Z</time>
      </trkpt>
      <trkpt lat="48.85107" lon="2.54761">
        <ele>60.3</ele>
        <time>2018-08-26T11:47:36Z</time>
      </trkpt>
      <trkpt lat="48.85109" lon="2.54755">
        <ele>60.1</ele>
        <time>2018-08-26T11:47:50Z</time>
      </trkpt>
      <trkpt lat="48.85111" lon="2.54757">
        <ele>60</ele>
        <time>2018-08-26T11:48:08Z</time>
      </trkpt>
      <trkpt lat="48.85103" lon="2.54754">
        <ele>60.6</ele>
        <time>2018-08-26T11:48:24Z</time>
      </trkpt>
      <trkpt lat="48.851" lon="2.54748">
        <ele>60.8</ele>
        <time>2018-08-26T11:48:40Z</time>
      </trkpt>
      <trkpt lat="48.85095" lon="2.54756">
        <ele>61.2</ele>
        <time>2018-08-26T11:48:54Z</time>
      </trkpt>
      <trkpt lat="48.85096" lon="2.54765">
        <ele>61.1</ele>
        <time>2018-08-26T11:49:08Z</time>
      </trkpt>
      <trkpt lat="48.85091" lon="2.5475">
        <ele>61.4</ele>
        <time>2018-08-26T11:49:25Z</time>
      </trkpt>
      <trkpt lat="48.8509" lon="2.54731">
        <ele>61.4</ele>
        <time>2018-08-26T11:49:40Z</time>
      </trkpt>
      <trkpt lat="48.85087" lon="2.54718">
        <ele>61.4</ele>
        <time>2018-08-26T11:49:54Z</time>
      </trkpt>
      <trkpt lat="48.85091" lon="2.54714">
        <ele>60.8</ele>
        <time>2018-08-26T11:50:09Z</time>
      </trkpt>
      <trkpt lat="48.85089" lon="2.54718">
        <ele>61.2</ele>
        <time>2018-08-26T11:50:28Z</time>
      </trkpt>
      <trkpt lat="48.85092" lon="2.54744">
        <ele>61.3</ele>
        <time>2018-08-26T11:50:45Z</time>
      </trkpt>
      <trkpt lat="48.85081" lon="2.54751">
        <ele>62.1</ele>
        <time>2018-08-26T11:51:00Z</time>
      </trkpt>
      <trkpt lat="48.85071" lon="2.54755">
        <ele>62.9</ele>
        <time>2018-08-26T11:51:14Z</time>
      </trkpt>
      <trkpt lat="48.85057" lon="2.54754">
        <ele>63.9</ele>
        <time>2018-08-26T11:51:30Z</time>
      </trkpt>
      <trkpt lat="48.85043" lon="2.54755">
        <ele>65</ele>
        <time>2018-08-26T11:51:46Z</time>
      </trkpt>
      <trkpt lat="48.85043" lon="2.54767">
        <ele>65.2</ele>
        <time>2018-08-26T11:51:56Z</time>
      </trkpt>
      <trkpt lat="48.85048" lon="2.54777">
        <ele>64.8</ele>
        <time>2018-08-26T11:52:10Z</time>
      </trkpt>
      <trkpt lat="48.85048" lon="2.54795">
        <ele>64.8</ele>
        <time>2018-08-26T11:52:26Z</time>
      </trkpt>
      <trkpt lat="48.85049" lon="2.54797">
        <ele>64.7</ele>
        <time>2018-08-26T11:52:43Z</time>
      </trkpt>
      <trkpt lat="48.85047" lon="2.54796">
        <ele>64.9</ele>
        <time>2018-08-26T11:53:01Z</time>
      </trkpt>
      <trkpt lat="48.85049" lon="2.54797">
        <ele>64.8</ele>
        <time>2018-08-26T11:53:17Z</time>
      </trkpt>
      <trkpt lat="48.85052" lon="2.54809">
        <ele>64.5</ele>
        <time>2018-08-26T11:53:35Z</time>
      </trkpt>
      <trkpt lat="48.8505" lon="2.54808">
        <ele>64.6</ele>
        <time>2018-08-26T11:53:48Z</time>
      </trkpt>
      <trkpt lat="48.85049" lon="2.54786">
        <ele>64.7</ele>
        <time>2018-08-26T11:54:04Z</time>
      </trkpt>
      <trkpt lat="48.85047" lon="2.54768">
        <ele>64.8</ele>
        <time>2018-08-26T11:54:19Z</time>
      </trkpt>
      <trkpt lat="48.85046" lon="2.54772">
        <ele>64.9</ele>
        <time>2018-08-26T11:54:40Z</time>
      </trkpt>
      <trkpt lat="48.85049" lon="2.54772">
        <ele>64.7</ele>
        <time>2018-08-26T11:54:56Z</time>
      </trkpt>
      <trkpt lat="48.85044" lon="2.54767">
        <ele>65.1</ele>
        <time>2018-08-26T11:55:14Z</time>
      </trkpt>
      <trkpt lat="48.85041" lon="2.54795">
        <ele>65.5</ele>
        <time>2018-08-26T11:55:32Z</time>
      </trkpt>
      <trkpt lat="48.85038" lon="2.54825">
        <ele>66.2</ele>
        <time>2018-08-26T11:55:51Z</time>
      </trkpt>
      <trkpt lat="48.85035" lon="2.54828">
        <ele>66.4</ele>
        <time>2018-08-26T11:55:54Z</time>
      </trkpt>
      <trkpt lat="48.85022" lon="2.54847">
        <ele>67.4</ele>
        <time>2018-08-26T11:56:11Z</time>
      </trkpt>
      <trkpt lat="48.85011" lon="2.54867">
        <ele>68.3</ele>
        <time>2018-08-26T11:56:28Z</time>
      </trkpt>
      <trkpt lat="48.85007" lon="2.54874">
        <ele>68.6</ele>
        <time>2018-08-26T11:56:35Z</time>
      </trkpt>
      <trkpt lat="48.85004" lon="2.54876">
        <ele>68.8</ele>
        <time>2018-08-26T11:56:38Z</time>
      </trkpt>
      <trkpt lat="48.84999" lon="2.54878">
        <ele>69.1</ele>
        <time>2018-08-26T11:56:44Z</time>
      </trkpt>
      <trkpt lat="48.84995" lon="2.54879">
        <ele>69.5</ele>
        <time>2018-08-26T11:56:56Z</time>
      </trkpt>
      <trkpt lat="48.84991" lon="2.54881">
        <ele>69.9</ele>
        <time>2018-08-26T11:57:01Z</time>
      </trkpt>
      <trkpt lat="48.84988" lon="2.54883">
        <ele>70.2</ele>
        <time>2018-08-26T11:57:07Z</time>
      </trkpt>
      <trkpt lat="48.84982" lon="2.54896">
        <ele>71</ele>
        <time>2018-08-26T11:57:21Z</time>
      </trkpt>
      <trkpt lat="48.84976" lon="2.54911">
        <ele>71.6</ele>
        <time>2018-08-26T11:57:34Z</time>
      </trkpt>
      <trkpt lat="48.84967" lon="2.54921">
        <ele>72.3</ele>
        <time>2018-08-26T11:57:50Z</time>
      </trkpt>
      <trkpt lat="48.84954" lon="2.54928">
        <ele>73.3</ele>
        <time>2018-08-26T11:58:06Z</time>
      </trkpt>
      <trkpt lat="48.84943" lon="2.54942">
        <ele>74.1</ele>
        <time>2018-08-26T11:58:19Z</time>
      </trkpt>
      <trkpt lat="48.8493" lon="2.54965">
        <ele>75.4</ele>
        <time>2018-08-26T11:58:38Z</time>
      </trkpt>
      <trkpt lat="48.84919" lon="2.54975">
        <ele>76</ele>
        <time>2018-08-26T11:58:52Z</time>
      </trkpt>
      <trkpt lat="48.8491" lon="2.5498">
        <ele>76.7</ele>
        <time>2018-08-26T11:59:07Z</time>
      </trkpt>
      <trkpt lat="48.84902" lon="2.54985">
        <ele>77.3</ele>
        <time>2018-08-26T11:59:20Z</time>
      </trkpt>
      <trkpt lat="48.84897" lon="2.54986">
        <ele>77.6</ele>
        <time>2018-08-26T11:59:38Z</time>
      </trkpt>
      <trkpt lat="48.84891" lon="2.54989">
        <ele>77.9</ele>
        <time>2018-08-26T11:59:46Z</time>
      </trkpt>
      <trkpt lat="48.84878" lon="2.54993">
        <ele>78.9</ele>
        <time>2018-08-26T12:00:00Z</time>
      </trkpt>
      <trkpt lat="48.84862" lon="2.55008">
        <ele>80.2</ele>
        <time>2018-08-26T12:00:15Z</time>
      </trkpt>
      <trkpt lat="48.8485" lon="2.55021">
        <ele>81.7</ele>
        <time>2018-08-26T12:00:30Z</time>
      </trkpt>
      <trkpt lat="48.8485" lon="2.55041">
        <ele>82.1</ele>
        <time>2018-08-26T12:00:45Z</time>
      </trkpt>
      <trkpt lat="48.84852" lon="2.55067">
        <ele>82.5</ele>
        <time>2018-08-26T12:01:04Z</time>
      </trkpt>
      <trkpt lat="48.84858" lon="2.55086">
        <ele>82.3</ele>
        <time>2018-08-26T12:01:19Z</time>
      </trkpt>
      <trkpt lat="48.84859" lon="2.55111">
        <ele>83.2</ele>
        <time>2018-08-26T12:01:35Z</time>
      </trkpt>
      <trkpt lat="48.84863" lon="2.55128">
        <ele>82.8</ele>
        <time>2018-08-26T12:01:52Z</time>
      </trkpt>
      <trkpt lat="48.84865" lon="2.55144">
        <ele>82.8</ele>
        <time>2018-08-26T12:02:05Z</time>
      </trkpt>
      <trkpt lat="48.84872" lon="2.55161">
        <ele>82.8</ele>
        <time>2018-08-26T12:02:20Z</time>
      </trkpt>
      <trkpt lat="48.84874" lon="2.55177">
        <ele>83</ele>
        <time>2018-08-26T12:02:32Z</time>
      </trkpt>
      <trkpt lat="48.84875" lon="2.55199">
        <ele>83.1</ele>
        <time>2018-08-26T12:02:44Z</time>
      </trkpt>
      <trkpt lat="48.84879" lon="2.55213">
        <ele>83.3</ele>
        <time>2018-08-26T12:02:55Z</time>
      </trkpt>
      <trkpt lat="48.8488" lon="2.5523">
        <ele>83.3</ele>
        <time>2018-08-26T12:03:07Z</time>
      </trkpt>
      <trkpt lat="48.84874" lon="2.55245">
        <ele>83.5</ele>
        <time>2018-08-26T12:03:22Z</time>
      </trkpt>
      <trkpt lat="48.84874" lon="2.55268">
        <ele>84.2</ele>
        <time>2018-08-26T12:03:36Z</time>
      </trkpt>
      <trkpt lat="48.84863" lon="2.55278">
        <ele>84.9</ele>
        <time>2018-08-26T12:03:51Z</time>
      </trkpt>
      <trkpt lat="48.84848" lon="2.55285">
        <ele>85.6</ele>
        <time>2018-08-26T12:04:08Z</time>
      </trkpt>
      <trkpt lat="48.84846" lon="2.55289">
        <ele>85.8</ele>
        <time>2018-08-26T12:04:22Z</time>
      </trkpt>
      <trkpt lat="48.84849" lon="2.55298">
        <ele>85.8</ele>
        <time>2018-08-26T12:04:37Z</time>
      </trkpt>
      <trkpt lat="48.84848" lon="2.55301">
        <ele>85.8</ele>
        <time>2018-08-26T12:04:56Z</time>
      </trkpt>
      <trkpt lat="48.84849" lon="2.55304">
        <ele>85.9</ele>
        <time>2018-08-26T12:05:12Z</time>
      </trkpt>
      <trkpt lat="48.84826" lon="2.55235">
        <ele>86.3</ele>
        <time>2018-08-26T12:35:26Z</time>
      </trkpt>
      <trkpt lat="48.84827" lon="2.55258">
        <ele>86.3</ele>
        <time>2018-08-26T12:35:28Z</time>
      </trkpt>
      <trkpt lat="48.84814" lon="2.553">
        <ele>87.1</ele>
        <time>2018-08-26T12:35:35Z</time>
      </trkpt>
      <trkpt lat="48.84811" lon="2.55301">
        <ele>87.1</ele>
        <time>2018-08-26T12:35:38Z</time>
      </trkpt>
      <trkpt lat="48.84798" lon="2.55299">
        <ele>87.7</ele>
        <time>2018-08-26T12:35:46Z</time>
      </trkpt>
      <trkpt lat="48.8478" lon="2.55297">
        <ele>88.9</ele>
        <time>2018-08-26T12:36:01Z</time>
      </trkpt>
      <trkpt lat="48.84777" lon="2.55298">
        <ele>89</ele>
        <time>2018-08-26T12:36:04Z</time>
      </trkpt>
      <trkpt lat="48.8478" lon="2.55323">
        <ele>88.9</ele>
        <time>2018-08-26T12:36:18Z</time>
      </trkpt>
      <trkpt lat="48.84783" lon="2.55348">
        <ele>88.8</ele>
        <time>2018-08-26T12:36:33Z</time>
      </trkpt>
      <trkpt lat="48.84782" lon="2.55367">
        <ele>88.9</ele>
        <time>2018-08-26T12:36:47Z</time>
      </trkpt>
      <trkpt lat="48.84784" lon="2.55382">
        <ele>88.8</ele>
        <time>2018-08-26T12:37:01Z</time>
      </trkpt>
      <trkpt lat="48.84787" lon="2.55387">
        <ele>88.7</ele>
        <time>2018-08-26T12:37:05Z</time>
      </trkpt>
      <trkpt lat="48.84787" lon="2.55419">
        <ele>89.4</ele>
        <time>2018-08-26T12:37:23Z</time>
      </trkpt>
      <trkpt lat="48.84787" lon="2.55421">
        <ele>89.4</ele>
        <time>2018-08-26T12:37:24Z</time>
      </trkpt>
      <trkpt lat="48.84788" lon="2.55434">
        <ele>89.5</ele>
        <time>2018-08-26T12:37:32Z</time>
      </trkpt>
      <trkpt lat="48.84791" lon="2.55452">
        <ele>89.6</ele>
        <time>2018-08-26T12:37:43Z</time>
      </trkpt>
      <trkpt lat="48.84793" lon="2.55474">
        <ele>90</ele>
        <time>2018-08-26T12:37:58Z</time>
      </trkpt>
      <trkpt lat="48.84795" lon="2.55498">
        <ele>89.4</ele>
        <time>2018-08-26T12:38:13Z</time>
      </trkpt>
      <trkpt lat="48.84797" lon="2.5552">
        <ele>90</ele>
        <time>2018-08-26T12:38:29Z</time>
      </trkpt>
      <trkpt lat="48.848" lon="2.55546">
        <ele>89.7</ele>
        <time>2018-08-26T12:38:48Z</time>
      </trkpt>
      <trkpt lat="48.84801" lon="2.5555">
        <ele>89.5</ele>
        <time>2018-08-26T12:38:52Z</time>
      </trkpt>
      <trkpt lat="48.84803" lon="2.55564">
        <ele>89.2</ele>
        <time>2018-08-26T12:39:02Z</time>
      </trkpt>
      <trkpt lat="48.84807" lon="2.55604">
        <ele>88.2</ele>
        <time>2018-08-26T12:39:24Z</time>
      </trkpt>
      <trkpt lat="48.84809" lon="2.5563">
        <ele>87.9</ele>
        <time>2018-08-26T12:39:44Z</time>
      </trkpt>
      <trkpt lat="48.84814" lon="2.55651">
        <ele>88</ele>
        <time>2018-08-26T12:40:02Z</time>
      </trkpt>
      <trkpt lat="48.84822" lon="2.55656">
        <ele>87.6</ele>
        <time>2018-08-26T12:40:09Z</time>
      </trkpt>
      <trkpt lat="48.8484" lon="2.55673">
        <ele>86.6</ele>
        <time>2018-08-26T12:40:28Z</time>
      </trkpt>
      <trkpt lat="48.84843" lon="2.55674">
        <ele>86.4</ele>
        <time>2018-08-26T12:40:30Z</time>
      </trkpt>
      <trkpt lat="48.84855" lon="2.55682">
        <ele>85.7</ele>
        <time>2018-08-26T12:40:45Z</time>
      </trkpt>
    </trkseg>
  </trk>
</gpx>